<?xml version='1.0' encoding='UTF-8'?>
<gpx version="1.1" creator="https://www.komoot.de" xmlns="http://www.topografix.com/GPX/1/1" xmlns:xsi="http://www.w3.org/2001/XMLSchema-instance" xsi:schemaLocation="http://www.topografix.com/GPX/1/1 http://www.topografix.com/GPX/1/1/gpx.xsd">
  <metadata>
    <name>Wanderung rund um Villingen 12km</name>
    <author>
      <link href="https://www.komoot.de">
        <text>komoot</text>
        <type>text/html</type>
      </link>
    </author>
  </metadata>
  <trk>
    <name>Wanderung rund um Villingen 12km</name>
    <trkseg>
      <trkpt lat="48.057610" lon="8.464633">
        <ele>763.494826</ele>
        <time>2019-05-01T09:31:43.000Z</time>
      </trkpt>
      <trkpt lat="48.057854" lon="8.464541">
        <ele>763.494826</ele>
        <time>2019-05-01T09:31:44.000Z</time>
      </trkpt>
      <trkpt lat="48.057810" lon="8.464416">
        <ele>763.494826</ele>
        <time>2019-05-01T09:32:08.000Z</time>
      </trkpt>
      <trkpt lat="48.057790" lon="8.464286">
        <ele>763.494826</ele>
        <time>2019-05-01T09:32:18.000Z</time>
      </trkpt>
      <trkpt lat="48.057810" lon="8.464152">
        <ele>763.494826</ele>
        <time>2019-05-01T09:32:25.000Z</time>
      </trkpt>
      <trkpt lat="48.057785" lon="8.464007">
        <ele>763.494826</ele>
        <time>2019-05-01T09:32:33.000Z</time>
      </trkpt>
      <trkpt lat="48.057747" lon="8.463878">
        <ele>763.494826</ele>
        <time>2019-05-01T09:32:43.000Z</time>
      </trkpt>
      <trkpt lat="48.057743" lon="8.463741">
        <ele>763.494826</ele>
        <time>2019-05-01T09:32:58.000Z</time>
      </trkpt>
      <trkpt lat="48.057755" lon="8.463551">
        <ele>763.412834</ele>
        <time>2019-05-01T09:33:47.000Z</time>
      </trkpt>
      <trkpt lat="48.057762" lon="8.463415">
        <ele>763.231347</ele>
        <time>2019-05-01T09:33:54.000Z</time>
      </trkpt>
      <trkpt lat="48.057747" lon="8.463269">
        <ele>763.034808</ele>
        <time>2019-05-01T09:34:04.000Z</time>
      </trkpt>
      <trkpt lat="48.057760" lon="8.463130">
        <ele>762.848063</ele>
        <time>2019-05-01T09:34:15.000Z</time>
      </trkpt>
      <trkpt lat="48.057750" lon="8.462996">
        <ele>762.668665</ele>
        <time>2019-05-01T09:34:27.000Z</time>
      </trkpt>
      <trkpt lat="48.057760" lon="8.462845">
        <ele>762.466771</ele>
        <time>2019-05-01T09:34:35.000Z</time>
      </trkpt>
      <trkpt lat="48.057760" lon="8.462704">
        <ele>762.279167</ele>
        <time>2019-05-01T09:34:49.000Z</time>
      </trkpt>
      <trkpt lat="48.057747" lon="8.462528">
        <ele>762.043569</ele>
        <time>2019-05-01T09:35:33.000Z</time>
      </trkpt>
      <trkpt lat="48.057842" lon="8.462558">
        <ele>761.850289</ele>
        <time>2019-05-01T09:35:42.000Z</time>
      </trkpt>
      <trkpt lat="48.057938" lon="8.462555">
        <ele>761.659143</ele>
        <time>2019-05-01T09:35:54.000Z</time>
      </trkpt>
      <trkpt lat="48.058025" lon="8.462570">
        <ele>761.484808</ele>
        <time>2019-05-01T09:36:03.000Z</time>
      </trkpt>
      <trkpt lat="48.058130" lon="8.462580">
        <ele>761.275365</ele>
        <time>2019-05-01T09:36:19.000Z</time>
      </trkpt>
      <trkpt lat="48.058260" lon="8.462578">
        <ele>761.016564</ele>
        <time>2019-05-01T09:36:23.000Z</time>
      </trkpt>
      <trkpt lat="48.058360" lon="8.462582">
        <ele>760.817426</ele>
        <time>2019-05-01T09:36:27.000Z</time>
      </trkpt>
      <trkpt lat="48.058460" lon="8.462540">
        <ele>760.610664</ele>
        <time>2019-05-01T09:36:34.000Z</time>
      </trkpt>
      <trkpt lat="48.058548" lon="8.462488">
        <ele>760.422318</ele>
        <time>2019-05-01T09:36:40.000Z</time>
      </trkpt>
      <trkpt lat="48.058636" lon="8.462452">
        <ele>760.240709</ele>
        <time>2019-05-01T09:36:50.000Z</time>
      </trkpt>
      <trkpt lat="48.058727" lon="8.462422">
        <ele>760.055212</ele>
        <time>2019-05-01T09:37:02.000Z</time>
      </trkpt>
      <trkpt lat="48.058834" lon="8.462435">
        <ele>759.893037</ele>
        <time>2019-05-01T09:37:09.000Z</time>
      </trkpt>
      <trkpt lat="48.058933" lon="8.462446">
        <ele>759.835267</ele>
        <time>2019-05-01T09:37:14.000Z</time>
      </trkpt>
      <trkpt lat="48.059025" lon="8.462490">
        <ele>759.779062</ele>
        <time>2019-05-01T09:37:20.000Z</time>
      </trkpt>
      <trkpt lat="48.059128" lon="8.462540">
        <ele>759.716047</ele>
        <time>2019-05-01T09:37:29.000Z</time>
      </trkpt>
      <trkpt lat="48.059220" lon="8.462512">
        <ele>759.661414</ele>
        <time>2019-05-01T09:37:38.000Z</time>
      </trkpt>
      <trkpt lat="48.059310" lon="8.462451">
        <ele>759.603918</ele>
        <time>2019-05-01T09:37:44.000Z</time>
      </trkpt>
      <trkpt lat="48.059406" lon="8.462377">
        <ele>759.541075</ele>
        <time>2019-05-01T09:37:48.000Z</time>
      </trkpt>
      <trkpt lat="48.059483" lon="8.462473">
        <ele>759.482749</ele>
        <time>2019-05-01T09:37:55.000Z</time>
      </trkpt>
      <trkpt lat="48.059486" lon="8.462610">
        <ele>759.429436</ele>
        <time>2019-05-01T09:38:01.000Z</time>
      </trkpt>
      <trkpt lat="48.059560" lon="8.462695">
        <ele>759.375147</ele>
        <time>2019-05-01T09:38:15.000Z</time>
      </trkpt>
      <trkpt lat="48.059628" lon="8.462605">
        <ele>759.322316</ele>
        <time>2019-05-01T09:38:30.000Z</time>
      </trkpt>
      <trkpt lat="48.059720" lon="8.462577">
        <ele>759.267683</ele>
        <time>2019-05-01T09:38:40.000Z</time>
      </trkpt>
      <trkpt lat="48.059800" lon="8.462501">
        <ele>759.212537</ele>
        <time>2019-05-01T09:38:51.000Z</time>
      </trkpt>
      <trkpt lat="48.059906" lon="8.462463">
        <ele>759.149107</ele>
        <time>2019-05-01T09:38:57.000Z</time>
      </trkpt>
      <trkpt lat="48.060005" lon="8.462501">
        <ele>759.089631</ele>
        <time>2019-05-01T09:39:03.000Z</time>
      </trkpt>
      <trkpt lat="48.060050" lon="8.462375">
        <ele>759.034068</ele>
        <time>2019-05-01T09:39:24.000Z</time>
      </trkpt>
      <trkpt lat="48.060100" lon="8.462259">
        <ele>758.980384</ele>
        <time>2019-05-01T09:39:32.000Z</time>
      </trkpt>
      <trkpt lat="48.060177" lon="8.462157">
        <ele>758.920537</ele>
        <time>2019-05-01T09:39:36.000Z</time>
      </trkpt>
      <trkpt lat="48.060280" lon="8.462101">
        <ele>758.852437</ele>
        <time>2019-05-01T09:39:41.000Z</time>
      </trkpt>
      <trkpt lat="48.060360" lon="8.462024">
        <ele>758.775068</ele>
        <time>2019-05-01T09:39:45.000Z</time>
      </trkpt>
      <trkpt lat="48.060436" lon="8.461956">
        <ele>758.703043</ele>
        <time>2019-05-01T09:39:51.000Z</time>
      </trkpt>
      <trkpt lat="48.060530" lon="8.461927">
        <ele>758.624979</ele>
        <time>2019-05-01T09:39:57.000Z</time>
      </trkpt>
      <trkpt lat="48.060580" lon="8.461817">
        <ele>758.552664</ele>
        <time>2019-05-01T09:40:11.000Z</time>
      </trkpt>
      <trkpt lat="48.060673" lon="8.461745">
        <ele>758.467496</ele>
        <time>2019-05-01T09:40:15.000Z</time>
      </trkpt>
      <trkpt lat="48.060770" lon="8.461685">
        <ele>758.382124</ele>
        <time>2019-05-01T09:40:20.000Z</time>
      </trkpt>
      <trkpt lat="48.060852" lon="8.461624">
        <ele>758.307640</ele>
        <time>2019-05-01T09:40:25.000Z</time>
      </trkpt>
      <trkpt lat="48.060932" lon="8.461535">
        <ele>758.226556</ele>
        <time>2019-05-01T09:40:32.000Z</time>
      </trkpt>
      <trkpt lat="48.061020" lon="8.461463">
        <ele>758.144978</ele>
        <time>2019-05-01T09:40:37.000Z</time>
      </trkpt>
      <trkpt lat="48.061066" lon="8.461333">
        <ele>758.065017</ele>
        <time>2019-05-01T09:40:45.000Z</time>
      </trkpt>
      <trkpt lat="48.061127" lon="8.461217">
        <ele>757.984781</ele>
        <time>2019-05-01T09:40:56.000Z</time>
      </trkpt>
      <trkpt lat="48.061220" lon="8.461177">
        <ele>757.906075</ele>
        <time>2019-05-01T09:41:03.000Z</time>
      </trkpt>
      <trkpt lat="48.061302" lon="8.461096">
        <ele>757.826156</ele>
        <time>2019-05-01T09:41:11.000Z</time>
      </trkpt>
      <trkpt lat="48.061380" lon="8.461002">
        <ele>757.744695</ele>
        <time>2019-05-01T09:41:16.000Z</time>
      </trkpt>
      <trkpt lat="48.061440" lon="8.460899">
        <ele>757.670422</ele>
        <time>2019-05-01T09:41:22.000Z</time>
      </trkpt>
      <trkpt lat="48.061490" lon="8.460786">
        <ele>757.596754</ele>
        <time>2019-05-01T09:41:28.000Z</time>
      </trkpt>
      <trkpt lat="48.061530" lon="8.460661">
        <ele>757.521417</ele>
        <time>2019-05-01T09:41:36.000Z</time>
      </trkpt>
      <trkpt lat="48.061592" lon="8.460557">
        <ele>757.445661</ele>
        <time>2019-05-01T09:41:45.000Z</time>
      </trkpt>
      <trkpt lat="48.061638" lon="8.460425">
        <ele>757.471720</ele>
        <time>2019-05-01T09:41:53.000Z</time>
      </trkpt>
      <trkpt lat="48.061720" lon="8.460319">
        <ele>757.619511</ele>
        <time>2019-05-01T09:41:59.000Z</time>
      </trkpt>
      <trkpt lat="48.061775" lon="8.460199">
        <ele>757.752140</ele>
        <time>2019-05-01T09:42:07.000Z</time>
      </trkpt>
      <trkpt lat="48.061844" lon="8.459970">
        <ele>757.981104</ele>
        <time>2019-05-01T09:43:01.000Z</time>
      </trkpt>
      <trkpt lat="48.061870" lon="8.459826">
        <ele>758.117064</ele>
        <time>2019-05-01T09:43:06.000Z</time>
      </trkpt>
      <trkpt lat="48.061880" lon="8.459684">
        <ele>758.247213</ele>
        <time>2019-05-01T09:43:14.000Z</time>
      </trkpt>
      <trkpt lat="48.061900" lon="8.459548">
        <ele>758.374141</ele>
        <time>2019-05-01T09:43:21.000Z</time>
      </trkpt>
      <trkpt lat="48.061935" lon="8.459408">
        <ele>758.510385</ele>
        <time>2019-05-01T09:44:37.000Z</time>
      </trkpt>
      <trkpt lat="48.062060" lon="8.459429">
        <ele>758.681936</ele>
        <time>2019-05-01T09:45:01.000Z</time>
      </trkpt>
      <trkpt lat="48.062157" lon="8.459417">
        <ele>758.814680</ele>
        <time>2019-05-01T09:45:06.000Z</time>
      </trkpt>
      <trkpt lat="48.062260" lon="8.459427">
        <ele>758.955451</ele>
        <time>2019-05-01T09:45:10.000Z</time>
      </trkpt>
      <trkpt lat="48.062360" lon="8.459416">
        <ele>759.092203</ele>
        <time>2019-05-01T09:45:19.000Z</time>
      </trkpt>
      <trkpt lat="48.062454" lon="8.459391">
        <ele>759.222413</ele>
        <time>2019-05-01T09:45:33.000Z</time>
      </trkpt>
      <trkpt lat="48.062546" lon="8.459418">
        <ele>759.350277</ele>
        <time>2019-05-01T09:45:42.000Z</time>
      </trkpt>
      <trkpt lat="48.062645" lon="8.459443">
        <ele>759.487206</ele>
        <time>2019-05-01T09:45:47.000Z</time>
      </trkpt>
      <trkpt lat="48.062748" lon="8.459432">
        <ele>759.628039</ele>
        <time>2019-05-01T09:45:55.000Z</time>
      </trkpt>
      <trkpt lat="48.062840" lon="8.459424">
        <ele>759.753724</ele>
        <time>2019-05-01T09:46:02.000Z</time>
      </trkpt>
      <trkpt lat="48.062900" lon="8.459312">
        <ele>759.870740</ele>
        <time>2019-05-01T09:46:09.000Z</time>
      </trkpt>
      <trkpt lat="48.062973" lon="8.459229">
        <ele>759.931299</ele>
        <time>2019-05-01T09:46:17.000Z</time>
      </trkpt>
      <trkpt lat="48.063060" lon="8.459259">
        <ele>759.990271</ele>
        <time>2019-05-01T09:46:27.000Z</time>
      </trkpt>
      <trkpt lat="48.063160" lon="8.459290">
        <ele>760.057725</ele>
        <time>2019-05-01T09:46:37.000Z</time>
      </trkpt>
      <trkpt lat="48.063255" lon="8.459250">
        <ele>760.122911</ele>
        <time>2019-05-01T09:46:44.000Z</time>
      </trkpt>
      <trkpt lat="48.063350" lon="8.459289">
        <ele>760.187980</ele>
        <time>2019-05-01T09:46:51.000Z</time>
      </trkpt>
      <trkpt lat="48.063446" lon="8.459325">
        <ele>760.253350</ele>
        <time>2019-05-01T09:46:57.000Z</time>
      </trkpt>
      <trkpt lat="48.063550" lon="8.459328">
        <ele>760.322057</ele>
        <time>2019-05-01T09:47:05.000Z</time>
      </trkpt>
      <trkpt lat="48.063644" lon="8.459327">
        <ele>760.384148</ele>
        <time>2019-05-01T09:47:16.000Z</time>
      </trkpt>
      <trkpt lat="48.063732" lon="8.459261">
        <ele>760.449166</ele>
        <time>2019-05-01T09:47:24.000Z</time>
      </trkpt>
      <trkpt lat="48.063816" lon="8.459217">
        <ele>760.507951</ele>
        <time>2019-05-01T09:47:34.000Z</time>
      </trkpt>
      <trkpt lat="48.063854" lon="8.459076">
        <ele>760.575062</ele>
        <time>2019-05-01T09:47:40.000Z</time>
      </trkpt>
      <trkpt lat="48.063896" lon="8.458946">
        <ele>760.638802</ele>
        <time>2019-05-01T09:47:46.000Z</time>
      </trkpt>
      <trkpt lat="48.063890" lon="8.458795">
        <ele>760.705575</ele>
        <time>2019-05-01T09:47:56.000Z</time>
      </trkpt>
      <trkpt lat="48.064022" lon="8.458554">
        <ele>760.843122</ele>
        <time>2019-05-01T09:49:01.000Z</time>
      </trkpt>
      <trkpt lat="48.064102" lon="8.458459">
        <ele>760.910582</ele>
        <time>2019-05-01T09:49:12.000Z</time>
      </trkpt>
      <trkpt lat="48.064160" lon="8.458353">
        <ele>760.971055</ele>
        <time>2019-05-01T09:49:20.000Z</time>
      </trkpt>
      <trkpt lat="48.064236" lon="8.458280">
        <ele>761.030707</ele>
        <time>2019-05-01T09:49:28.000Z</time>
      </trkpt>
      <trkpt lat="48.064330" lon="8.458177">
        <ele>761.030352</ele>
        <time>2019-05-01T09:49:34.000Z</time>
      </trkpt>
      <trkpt lat="48.064392" lon="8.458058">
        <ele>761.013717</ele>
        <time>2019-05-01T09:49:37.000Z</time>
      </trkpt>
      <trkpt lat="48.064445" lon="8.457945">
        <ele>760.998498</ele>
        <time>2019-05-01T09:49:42.000Z</time>
      </trkpt>
      <trkpt lat="48.064500" lon="8.457812">
        <ele>760.981256</ele>
        <time>2019-05-01T09:49:50.000Z</time>
      </trkpt>
      <trkpt lat="48.064540" lon="8.457676">
        <ele>760.964875</ele>
        <time>2019-05-01T09:50:00.000Z</time>
      </trkpt>
      <trkpt lat="48.064600" lon="8.457553">
        <ele>760.948087</ele>
        <time>2019-05-01T09:50:08.000Z</time>
      </trkpt>
      <trkpt lat="48.064670" lon="8.457456">
        <ele>760.932349</ele>
        <time>2019-05-01T09:50:14.000Z</time>
      </trkpt>
      <trkpt lat="48.064750" lon="8.457372">
        <ele>760.916227</ele>
        <time>2019-05-01T09:50:20.000Z</time>
      </trkpt>
      <trkpt lat="48.064820" lon="8.457267">
        <ele>760.899877</ele>
        <time>2019-05-01T09:50:27.000Z</time>
      </trkpt>
      <trkpt lat="48.064888" lon="8.457162">
        <ele>760.883758</ele>
        <time>2019-05-01T09:50:34.000Z</time>
      </trkpt>
      <trkpt lat="48.064930" lon="8.457040">
        <ele>760.868629</ele>
        <time>2019-05-01T09:50:42.000Z</time>
      </trkpt>
      <trkpt lat="48.064980" lon="8.456923">
        <ele>760.853319</ele>
        <time>2019-05-01T09:50:52.000Z</time>
      </trkpt>
      <trkpt lat="48.065040" lon="8.456813">
        <ele>760.837666</ele>
        <time>2019-05-01T09:50:56.000Z</time>
      </trkpt>
      <trkpt lat="48.065117" lon="8.456709">
        <ele>760.820555</ele>
        <time>2019-05-01T09:51:02.000Z</time>
      </trkpt>
      <trkpt lat="48.065147" lon="8.456565">
        <ele>760.803927</ele>
        <time>2019-05-01T09:51:09.000Z</time>
      </trkpt>
      <trkpt lat="48.065197" lon="8.456435">
        <ele>760.787391</ele>
        <time>2019-05-01T09:51:18.000Z</time>
      </trkpt>
      <trkpt lat="48.065243" lon="8.456319">
        <ele>760.772521</ele>
        <time>2019-05-01T09:51:23.000Z</time>
      </trkpt>
      <trkpt lat="48.065308" lon="8.456225">
        <ele>760.757610</ele>
        <time>2019-05-01T09:51:29.000Z</time>
      </trkpt>
      <trkpt lat="48.065310" lon="8.456080">
        <ele>760.734129</ele>
        <time>2019-05-01T09:51:38.000Z</time>
      </trkpt>
      <trkpt lat="48.065327" lon="8.455936">
        <ele>760.701847</ele>
        <time>2019-05-01T09:51:44.000Z</time>
      </trkpt>
      <trkpt lat="48.065342" lon="8.455791">
        <ele>760.669456</ele>
        <time>2019-05-01T09:51:52.000Z</time>
      </trkpt>
      <trkpt lat="48.065384" lon="8.455665">
        <ele>760.638372</ele>
        <time>2019-05-01T09:51:59.000Z</time>
      </trkpt>
      <trkpt lat="48.065430" lon="8.455530">
        <ele>760.604920</ele>
        <time>2019-05-01T09:52:05.000Z</time>
      </trkpt>
      <trkpt lat="48.065460" lon="8.455393">
        <ele>760.573093</ele>
        <time>2019-05-01T09:52:12.000Z</time>
      </trkpt>
      <trkpt lat="48.065490" lon="8.455244">
        <ele>760.538740</ele>
        <time>2019-05-01T09:52:21.000Z</time>
      </trkpt>
      <trkpt lat="48.065536" lon="8.455112">
        <ele>760.505876</ele>
        <time>2019-05-01T09:52:28.000Z</time>
      </trkpt>
      <trkpt lat="48.065550" lon="8.454972">
        <ele>760.474626</ele>
        <time>2019-05-01T09:52:38.000Z</time>
      </trkpt>
      <trkpt lat="48.065550" lon="8.454821">
        <ele>760.441291</ele>
        <time>2019-05-01T09:52:44.000Z</time>
      </trkpt>
      <trkpt lat="48.065520" lon="8.454686">
        <ele>760.409884</ele>
        <time>2019-05-01T09:52:51.000Z</time>
      </trkpt>
      <trkpt lat="48.065470" lon="8.454540">
        <ele>760.373668</ele>
        <time>2019-05-01T09:52:59.000Z</time>
      </trkpt>
      <trkpt lat="48.065464" lon="8.454405">
        <ele>760.343800</ele>
        <time>2019-05-01T09:53:04.000Z</time>
      </trkpt>
      <trkpt lat="48.065502" lon="8.454262">
        <ele>760.309827</ele>
        <time>2019-05-01T09:53:12.000Z</time>
      </trkpt>
      <trkpt lat="48.065510" lon="8.454109">
        <ele>760.275948</ele>
        <time>2019-05-01T09:53:20.000Z</time>
      </trkpt>
      <trkpt lat="48.065490" lon="8.453957">
        <ele>760.241748</ele>
        <time>2019-05-01T09:53:30.000Z</time>
      </trkpt>
      <trkpt lat="48.065487" lon="8.453799">
        <ele>760.206854</ele>
        <time>2019-05-01T09:53:38.000Z</time>
      </trkpt>
      <trkpt lat="48.065506" lon="8.453667">
        <ele>760.177046</ele>
        <time>2019-05-01T09:53:42.000Z</time>
      </trkpt>
      <trkpt lat="48.065510" lon="8.453526">
        <ele>760.142489</ele>
        <time>2019-05-01T09:53:48.000Z</time>
      </trkpt>
      <trkpt lat="48.065460" lon="8.453409">
        <ele>760.100298</ele>
        <time>2019-05-01T09:53:56.000Z</time>
      </trkpt>
      <trkpt lat="48.065445" lon="8.453268">
        <ele>760.056922</ele>
        <time>2019-05-01T09:54:04.000Z</time>
      </trkpt>
      <trkpt lat="48.065450" lon="8.453113">
        <ele>760.009778</ele>
        <time>2019-05-01T09:54:10.000Z</time>
      </trkpt>
      <trkpt lat="48.065403" lon="8.452982">
        <ele>759.964607</ele>
        <time>2019-05-01T09:54:23.000Z</time>
      </trkpt>
      <trkpt lat="48.065426" lon="8.452838">
        <ele>759.919628</ele>
        <time>2019-05-01T09:54:29.000Z</time>
      </trkpt>
      <trkpt lat="48.065450" lon="8.452688">
        <ele>759.872769</ele>
        <time>2019-05-01T09:54:35.000Z</time>
      </trkpt>
      <trkpt lat="48.065440" lon="8.452530">
        <ele>759.824554</ele>
        <time>2019-05-01T09:54:45.000Z</time>
      </trkpt>
      <trkpt lat="48.065426" lon="8.452379">
        <ele>759.778240</ele>
        <time>2019-05-01T09:54:52.000Z</time>
      </trkpt>
      <trkpt lat="48.065434" lon="8.452229">
        <ele>759.732525</ele>
        <time>2019-05-01T09:54:58.000Z</time>
      </trkpt>
      <trkpt lat="48.065460" lon="8.452074">
        <ele>759.683975</ele>
        <time>2019-05-01T09:55:04.000Z</time>
      </trkpt>
      <trkpt lat="48.065500" lon="8.451934">
        <ele>759.637719</ele>
        <time>2019-05-01T09:55:08.000Z</time>
      </trkpt>
      <trkpt lat="48.065514" lon="8.451783">
        <ele>759.591405</ele>
        <time>2019-05-01T09:55:14.000Z</time>
      </trkpt>
      <trkpt lat="48.065520" lon="8.451649">
        <ele>759.550605</ele>
        <time>2019-05-01T09:55:19.000Z</time>
      </trkpt>
      <trkpt lat="48.065533" lon="8.451503">
        <ele>759.505858</ele>
        <time>2019-05-01T09:55:26.000Z</time>
      </trkpt>
      <trkpt lat="48.065540" lon="8.451368">
        <ele>759.464721</ele>
        <time>2019-05-01T09:55:32.000Z</time>
      </trkpt>
      <trkpt lat="48.065563" lon="8.451223">
        <ele>759.419446</ele>
        <time>2019-05-01T09:55:40.000Z</time>
      </trkpt>
      <trkpt lat="48.065586" lon="8.451077">
        <ele>759.373875</ele>
        <time>2019-05-01T09:55:47.000Z</time>
      </trkpt>
      <trkpt lat="48.065582" lon="8.450942">
        <ele>759.333066</ele>
        <time>2019-05-01T09:55:53.000Z</time>
      </trkpt>
      <trkpt lat="48.065580" lon="8.450794">
        <ele>759.290558</ele>
        <time>2019-05-01T09:56:02.000Z</time>
      </trkpt>
      <trkpt lat="48.065580" lon="8.450651">
        <ele>759.249496</ele>
        <time>2019-05-01T09:56:09.000Z</time>
      </trkpt>
      <trkpt lat="48.065550" lon="8.450517">
        <ele>759.208915</ele>
        <time>2019-05-01T09:56:17.000Z</time>
      </trkpt>
      <trkpt lat="48.065525" lon="8.450381">
        <ele>759.168412</ele>
        <time>2019-05-01T09:56:27.000Z</time>
      </trkpt>
      <trkpt lat="48.065514" lon="8.450228">
        <ele>759.124224</ele>
        <time>2019-05-01T09:56:40.000Z</time>
      </trkpt>
      <trkpt lat="48.065490" lon="8.450068">
        <ele>759.077137</ele>
        <time>2019-05-01T09:56:47.000Z</time>
      </trkpt>
      <trkpt lat="48.065483" lon="8.449886">
        <ele>759.024788</ele>
        <time>2019-05-01T09:56:54.000Z</time>
      </trkpt>
      <trkpt lat="48.065520" lon="8.449750">
        <ele>758.982624</ele>
        <time>2019-05-01T09:57:02.000Z</time>
      </trkpt>
      <trkpt lat="48.065556" lon="8.449602">
        <ele>758.937397</ele>
        <time>2019-05-01T09:57:08.000Z</time>
      </trkpt>
      <trkpt lat="48.065598" lon="8.449464">
        <ele>758.893854</ele>
        <time>2019-05-01T09:57:12.000Z</time>
      </trkpt>
      <trkpt lat="48.065647" lon="8.449339">
        <ele>758.852241</ele>
        <time>2019-05-01T09:57:22.000Z</time>
      </trkpt>
      <trkpt lat="48.065670" lon="8.449198">
        <ele>758.810564</ele>
        <time>2019-05-01T09:57:31.000Z</time>
      </trkpt>
      <trkpt lat="48.065666" lon="8.449052">
        <ele>758.768604</ele>
        <time>2019-05-01T09:57:38.000Z</time>
      </trkpt>
      <trkpt lat="48.065678" lon="8.448897">
        <ele>758.723798</ele>
        <time>2019-05-01T09:57:50.000Z</time>
      </trkpt>
      <trkpt lat="48.065730" lon="8.448735">
        <ele>758.672192</ele>
        <time>2019-05-01T09:57:56.000Z</time>
      </trkpt>
      <trkpt lat="48.065777" lon="8.448566">
        <ele>758.619629</ele>
        <time>2019-05-01T09:57:59.000Z</time>
      </trkpt>
      <trkpt lat="48.065810" lon="8.448407">
        <ele>758.571821</ele>
        <time>2019-05-01T09:58:03.000Z</time>
      </trkpt>
      <trkpt lat="48.065850" lon="8.448282">
        <ele>758.558818</ele>
        <time>2019-05-01T09:58:09.000Z</time>
      </trkpt>
      <trkpt lat="48.065918" lon="8.448189">
        <ele>758.551981</ele>
        <time>2019-05-01T09:58:16.000Z</time>
      </trkpt>
      <trkpt lat="48.066013" lon="8.448192">
        <ele>758.544928</ele>
        <time>2019-05-01T09:58:23.000Z</time>
      </trkpt>
      <trkpt lat="48.066105" lon="8.448206">
        <ele>758.538065</ele>
        <time>2019-05-01T09:58:29.000Z</time>
      </trkpt>
      <trkpt lat="48.066196" lon="8.448229">
        <ele>758.531216</ele>
        <time>2019-05-01T09:58:34.000Z</time>
      </trkpt>
      <trkpt lat="48.066288" lon="8.448250">
        <ele>758.524308</ele>
        <time>2019-05-01T09:58:42.000Z</time>
      </trkpt>
      <trkpt lat="48.066395" lon="8.448142">
        <ele>758.514729</ele>
        <time>2019-05-01T09:59:24.000Z</time>
      </trkpt>
      <trkpt lat="48.066414" lon="8.447997">
        <ele>758.507401</ele>
        <time>2019-05-01T09:59:31.000Z</time>
      </trkpt>
      <trkpt lat="48.066338" lon="8.447927">
        <ele>758.500777</ele>
        <time>2019-05-01T09:59:39.000Z</time>
      </trkpt>
      <trkpt lat="48.066320" lon="8.447791">
        <ele>758.493901</ele>
        <time>2019-05-01T09:59:49.000Z</time>
      </trkpt>
      <trkpt lat="48.066370" lon="8.447659">
        <ele>758.486376</ele>
        <time>2019-05-01T10:00:02.000Z</time>
      </trkpt>
      <trkpt lat="48.066406" lon="8.447528">
        <ele>758.479350</ele>
        <time>2019-05-01T10:00:06.000Z</time>
      </trkpt>
      <trkpt lat="48.066440" lon="8.447370">
        <ele>758.471118</ele>
        <time>2019-05-01T10:00:17.000Z</time>
      </trkpt>
      <trkpt lat="48.066460" lon="8.447217">
        <ele>758.463385</ele>
        <time>2019-05-01T10:00:23.000Z</time>
      </trkpt>
      <trkpt lat="48.066483" lon="8.447074">
        <ele>758.456090</ele>
        <time>2019-05-01T10:00:29.000Z</time>
      </trkpt>
      <trkpt lat="48.066505" lon="8.446941">
        <ele>758.449295</ele>
        <time>2019-05-01T10:00:34.000Z</time>
      </trkpt>
      <trkpt lat="48.066520" lon="8.446793">
        <ele>758.441870</ele>
        <time>2019-05-01T10:00:39.000Z</time>
      </trkpt>
      <trkpt lat="48.066555" lon="8.446645">
        <ele>758.434084</ele>
        <time>2019-05-01T10:00:46.000Z</time>
      </trkpt>
      <trkpt lat="48.066536" lon="8.446512">
        <ele>758.429281</ele>
        <time>2019-05-01T10:00:54.000Z</time>
      </trkpt>
      <trkpt lat="48.066544" lon="8.446379">
        <ele>758.426251</ele>
        <time>2019-05-01T10:01:03.000Z</time>
      </trkpt>
      <trkpt lat="48.066610" lon="8.446263">
        <ele>758.422794</ele>
        <time>2019-05-01T10:01:10.000Z</time>
      </trkpt>
      <trkpt lat="48.066654" lon="8.446145">
        <ele>758.419728</ele>
        <time>2019-05-01T10:01:16.000Z</time>
      </trkpt>
      <trkpt lat="48.066685" lon="8.445995">
        <ele>758.416165</ele>
        <time>2019-05-01T10:01:22.000Z</time>
      </trkpt>
      <trkpt lat="48.066720" lon="8.445844">
        <ele>758.412538</ele>
        <time>2019-05-01T10:01:30.000Z</time>
      </trkpt>
      <trkpt lat="48.066723" lon="8.445701">
        <ele>758.409292</ele>
        <time>2019-05-01T10:01:37.000Z</time>
      </trkpt>
      <trkpt lat="48.066723" lon="8.445542">
        <ele>758.405684</ele>
        <time>2019-05-01T10:01:45.000Z</time>
      </trkpt>
      <trkpt lat="48.066715" lon="8.445397">
        <ele>758.402382</ele>
        <time>2019-05-01T10:01:53.000Z</time>
      </trkpt>
      <trkpt lat="48.066723" lon="8.445251">
        <ele>758.399058</ele>
        <time>2019-05-01T10:01:59.000Z</time>
      </trkpt>
      <trkpt lat="48.066750" lon="8.445109">
        <ele>758.395708</ele>
        <time>2019-05-01T10:02:06.000Z</time>
      </trkpt>
      <trkpt lat="48.066742" lon="8.444961">
        <ele>758.392339</ele>
        <time>2019-05-01T10:02:14.000Z</time>
      </trkpt>
      <trkpt lat="48.066742" lon="8.444813">
        <ele>758.388980</ele>
        <time>2019-05-01T10:02:23.000Z</time>
      </trkpt>
      <trkpt lat="48.066710" lon="8.444679">
        <ele>758.385751</ele>
        <time>2019-05-01T10:02:32.000Z</time>
      </trkpt>
      <trkpt lat="48.066680" lon="8.444535">
        <ele>758.382328</ele>
        <time>2019-05-01T10:02:39.000Z</time>
      </trkpt>
      <trkpt lat="48.066708" lon="8.444400">
        <ele>758.379121</ele>
        <time>2019-05-01T10:02:57.000Z</time>
      </trkpt>
      <trkpt lat="48.066730" lon="8.444261">
        <ele>758.375879</ele>
        <time>2019-05-01T10:03:08.000Z</time>
      </trkpt>
      <trkpt lat="48.066723" lon="8.444104">
        <ele>758.372309</ele>
        <time>2019-05-01T10:03:13.000Z</time>
      </trkpt>
      <trkpt lat="48.066757" lon="8.443958">
        <ele>758.400432</ele>
        <time>2019-05-01T10:03:19.000Z</time>
      </trkpt>
      <trkpt lat="48.066770" lon="8.443825">
        <ele>758.489781</ele>
        <time>2019-05-01T10:03:24.000Z</time>
      </trkpt>
      <trkpt lat="48.066776" lon="8.443676">
        <ele>758.589005</ele>
        <time>2019-05-01T10:03:29.000Z</time>
      </trkpt>
      <trkpt lat="48.066757" lon="8.443529">
        <ele>758.688530</ele>
        <time>2019-05-01T10:03:36.000Z</time>
      </trkpt>
      <trkpt lat="48.066740" lon="8.443303">
        <ele>758.839707</ele>
        <time>2019-05-01T10:04:51.000Z</time>
      </trkpt>
      <trkpt lat="48.066704" lon="8.443165">
        <ele>758.938181</ele>
        <time>2019-05-01T10:04:58.000Z</time>
      </trkpt>
      <trkpt lat="48.066710" lon="8.443021">
        <ele>759.034087</ele>
        <time>2019-05-01T10:05:06.000Z</time>
      </trkpt>
      <trkpt lat="48.066727" lon="8.442885">
        <ele>759.126057</ele>
        <time>2019-05-01T10:05:13.000Z</time>
      </trkpt>
      <trkpt lat="48.066740" lon="8.442750">
        <ele>759.216722</ele>
        <time>2019-05-01T10:05:22.000Z</time>
      </trkpt>
      <trkpt lat="48.066757" lon="8.442619">
        <ele>759.305428</ele>
        <time>2019-05-01T10:05:40.000Z</time>
      </trkpt>
      <trkpt lat="48.066770" lon="8.442479">
        <ele>759.399383</ele>
        <time>2019-05-01T10:06:14.000Z</time>
      </trkpt>
      <trkpt lat="48.066800" lon="8.442310">
        <ele>759.515618</ele>
        <time>2019-05-01T10:06:19.000Z</time>
      </trkpt>
      <trkpt lat="48.066772" lon="8.442167">
        <ele>759.614670</ele>
        <time>2019-05-01T10:06:24.000Z</time>
      </trkpt>
      <trkpt lat="48.066740" lon="8.442019">
        <ele>759.718070</ele>
        <time>2019-05-01T10:06:31.000Z</time>
      </trkpt>
      <trkpt lat="48.066704" lon="8.441882">
        <ele>759.815925</ele>
        <time>2019-05-01T10:06:37.000Z</time>
      </trkpt>
      <trkpt lat="48.066692" lon="8.441749">
        <ele>759.905136</ele>
        <time>2019-05-01T10:06:44.000Z</time>
      </trkpt>
      <trkpt lat="48.066654" lon="8.441613">
        <ele>760.003122</ele>
        <time>2019-05-01T10:06:51.000Z</time>
      </trkpt>
      <trkpt lat="48.066640" lon="8.441473">
        <ele>760.097220</ele>
        <time>2019-05-01T10:06:58.000Z</time>
      </trkpt>
      <trkpt lat="48.066620" lon="8.441337">
        <ele>760.243022</ele>
        <time>2019-05-01T10:07:46.000Z</time>
      </trkpt>
      <trkpt lat="48.066597" lon="8.441200">
        <ele>760.499085</ele>
        <time>2019-05-01T10:07:53.000Z</time>
      </trkpt>
      <trkpt lat="48.066610" lon="8.441044">
        <ele>760.784062</ele>
        <time>2019-05-01T10:08:01.000Z</time>
      </trkpt>
      <trkpt lat="48.066605" lon="8.440895">
        <ele>761.054501</ele>
        <time>2019-05-01T10:08:08.000Z</time>
      </trkpt>
      <trkpt lat="48.066563" lon="8.440765">
        <ele>761.316253</ele>
        <time>2019-05-01T10:08:14.000Z</time>
      </trkpt>
      <trkpt lat="48.066520" lon="8.440639">
        <ele>761.572718</ele>
        <time>2019-05-01T10:08:20.000Z</time>
      </trkpt>
      <trkpt lat="48.066410" lon="8.440530">
        <ele>761.930595</ele>
        <time>2019-05-01T10:10:16.000Z</time>
      </trkpt>
      <trkpt lat="48.066310" lon="8.440524">
        <ele>762.202073</ele>
        <time>2019-05-01T10:10:25.000Z</time>
      </trkpt>
      <trkpt lat="48.066406" lon="8.440510">
        <ele>762.463717</ele>
        <time>2019-05-01T10:11:23.000Z</time>
      </trkpt>
      <trkpt lat="48.066532" lon="8.440447">
        <ele>762.824080</ele>
        <time>2019-05-01T10:11:51.000Z</time>
      </trkpt>
      <trkpt lat="48.066444" lon="8.440273">
        <ele>763.219643</ele>
        <time>2019-05-01T10:12:18.000Z</time>
      </trkpt>
      <trkpt lat="48.066410" lon="8.440146">
        <ele>763.467649</ele>
        <time>2019-05-01T10:12:27.000Z</time>
      </trkpt>
      <trkpt lat="48.066303" lon="8.439877">
        <ele>764.035123</ele>
        <time>2019-05-01T10:13:15.000Z</time>
      </trkpt>
      <trkpt lat="48.066250" lon="8.439761">
        <ele>764.289852</ele>
        <time>2019-05-01T10:13:24.000Z</time>
      </trkpt>
      <trkpt lat="48.066180" lon="8.439655">
        <ele>764.559995</ele>
        <time>2019-05-01T10:13:32.000Z</time>
      </trkpt>
      <trkpt lat="48.066110" lon="8.439570">
        <ele>764.804530</ele>
        <time>2019-05-01T10:13:38.000Z</time>
      </trkpt>
      <trkpt lat="48.066036" lon="8.439472">
        <ele>765.061807</ele>
        <time>2019-05-01T10:13:49.000Z</time>
      </trkpt>
      <trkpt lat="48.065990" lon="8.439346">
        <ele>765.241045</ele>
        <time>2019-05-01T10:14:00.000Z</time>
      </trkpt>
      <trkpt lat="48.065968" lon="8.439204">
        <ele>765.423018</ele>
        <time>2019-05-01T10:14:05.000Z</time>
      </trkpt>
      <trkpt lat="48.065960" lon="8.439056">
        <ele>765.608382</ele>
        <time>2019-05-01T10:14:14.000Z</time>
      </trkpt>
      <trkpt lat="48.065960" lon="8.438912">
        <ele>765.788150</ele>
        <time>2019-05-01T10:14:21.000Z</time>
      </trkpt>
      <trkpt lat="48.066017" lon="8.438752">
        <ele>766.014501</ele>
        <time>2019-05-01T10:14:30.000Z</time>
      </trkpt>
      <trkpt lat="48.066032" lon="8.438609">
        <ele>766.195206</ele>
        <time>2019-05-01T10:14:55.000Z</time>
      </trkpt>
      <trkpt lat="48.066032" lon="8.438458">
        <ele>766.383712</ele>
        <time>2019-05-01T10:15:02.000Z</time>
      </trkpt>
      <trkpt lat="48.066082" lon="8.438339">
        <ele>766.559194</ele>
        <time>2019-05-01T10:15:36.000Z</time>
      </trkpt>
      <trkpt lat="48.066120" lon="8.438204">
        <ele>766.742065</ele>
        <time>2019-05-01T10:15:44.000Z</time>
      </trkpt>
      <trkpt lat="48.066143" lon="8.438074">
        <ele>766.909946</ele>
        <time>2019-05-01T10:15:51.000Z</time>
      </trkpt>
      <trkpt lat="48.066150" lon="8.437940">
        <ele>767.077740</ele>
        <time>2019-05-01T10:15:58.000Z</time>
      </trkpt>
      <trkpt lat="48.066140" lon="8.437785">
        <ele>767.272139</ele>
        <time>2019-05-01T10:16:04.000Z</time>
      </trkpt>
      <trkpt lat="48.066177" lon="8.437655">
        <ele>767.448534</ele>
        <time>2019-05-01T10:16:11.000Z</time>
      </trkpt>
      <trkpt lat="48.066220" lon="8.437511">
        <ele>767.645432</ele>
        <time>2019-05-01T10:16:19.000Z</time>
      </trkpt>
      <trkpt lat="48.066235" lon="8.437365">
        <ele>767.829837</ele>
        <time>2019-05-01T10:16:25.000Z</time>
      </trkpt>
      <trkpt lat="48.066273" lon="8.437232">
        <ele>768.010410</ele>
        <time>2019-05-01T10:16:33.000Z</time>
      </trkpt>
      <trkpt lat="48.066322" lon="8.437097">
        <ele>768.202195</ele>
        <time>2019-05-01T10:16:40.000Z</time>
      </trkpt>
      <trkpt lat="48.066372" lon="8.436967">
        <ele>768.389443</ele>
        <time>2019-05-01T10:16:47.000Z</time>
      </trkpt>
      <trkpt lat="48.066420" lon="8.436845">
        <ele>768.566048</ele>
        <time>2019-05-01T10:16:54.000Z</time>
      </trkpt>
      <trkpt lat="48.066486" lon="8.436733">
        <ele>768.752316</ele>
        <time>2019-05-01T10:17:01.000Z</time>
      </trkpt>
      <trkpt lat="48.066555" lon="8.436627">
        <ele>768.936900</ele>
        <time>2019-05-01T10:17:09.000Z</time>
      </trkpt>
      <trkpt lat="48.066624" lon="8.436537">
        <ele>769.107756</ele>
        <time>2019-05-01T10:17:14.000Z</time>
      </trkpt>
      <trkpt lat="48.066696" lon="8.436442">
        <ele>769.286934</ele>
        <time>2019-05-01T10:17:23.000Z</time>
      </trkpt>
      <trkpt lat="48.066765" lon="8.436347">
        <ele>769.461951</ele>
        <time>2019-05-01T10:17:30.000Z</time>
      </trkpt>
      <trkpt lat="48.066845" lon="8.436257">
        <ele>769.648772</ele>
        <time>2019-05-01T10:17:37.000Z</time>
      </trkpt>
      <trkpt lat="48.066920" lon="8.436188">
        <ele>769.813109</ele>
        <time>2019-05-01T10:17:47.000Z</time>
      </trkpt>
      <trkpt lat="48.066998" lon="8.436268">
        <ele>769.989620</ele>
        <time>2019-05-01T10:17:58.000Z</time>
      </trkpt>
      <trkpt lat="48.067070" lon="8.436365">
        <ele>770.170457</ele>
        <time>2019-05-01T10:18:05.000Z</time>
      </trkpt>
      <trkpt lat="48.067140" lon="8.436459">
        <ele>770.346016</ele>
        <time>2019-05-01T10:18:11.000Z</time>
      </trkpt>
      <trkpt lat="48.067223" lon="8.436555">
        <ele>770.541828</ele>
        <time>2019-05-01T10:18:19.000Z</time>
      </trkpt>
      <trkpt lat="48.067310" lon="8.436630">
        <ele>770.729242</ele>
        <time>2019-05-01T10:18:26.000Z</time>
      </trkpt>
      <trkpt lat="48.067398" lon="8.436663">
        <ele>770.898583</ele>
        <time>2019-05-01T10:18:33.000Z</time>
      </trkpt>
      <trkpt lat="48.067486" lon="8.436634">
        <ele>771.066780</ele>
        <time>2019-05-01T10:18:40.000Z</time>
      </trkpt>
      <trkpt lat="48.067562" lon="8.436561">
        <ele>771.235351</ele>
        <time>2019-05-01T10:18:48.000Z</time>
      </trkpt>
      <trkpt lat="48.067650" lon="8.436510">
        <ele>771.411501</ele>
        <time>2019-05-01T10:18:56.000Z</time>
      </trkpt>
      <trkpt lat="48.067740" lon="8.436452">
        <ele>771.594411</ele>
        <time>2019-05-01T10:19:04.000Z</time>
      </trkpt>
      <trkpt lat="48.067814" lon="8.436375">
        <ele>771.759349</ele>
        <time>2019-05-01T10:19:10.000Z</time>
      </trkpt>
      <trkpt lat="48.067898" lon="8.436294">
        <ele>771.861867</ele>
        <time>2019-05-01T10:19:18.000Z</time>
      </trkpt>
      <trkpt lat="48.067974" lon="8.436196">
        <ele>771.964790</ele>
        <time>2019-05-01T10:19:26.000Z</time>
      </trkpt>
      <trkpt lat="48.068030" lon="8.436070">
        <ele>772.068531</ele>
        <time>2019-05-01T10:20:05.000Z</time>
      </trkpt>
      <trkpt lat="48.068070" lon="8.435937">
        <ele>772.168519</ele>
        <time>2019-05-01T10:20:15.000Z</time>
      </trkpt>
      <trkpt lat="48.068085" lon="8.435798">
        <ele>772.265047</ele>
        <time>2019-05-01T10:20:24.000Z</time>
      </trkpt>
      <trkpt lat="48.068110" lon="8.435655">
        <ele>772.366381</ele>
        <time>2019-05-01T10:20:33.000Z</time>
      </trkpt>
      <trkpt lat="48.068123" lon="8.435519">
        <ele>772.460566</ele>
        <time>2019-05-01T10:20:41.000Z</time>
      </trkpt>
      <trkpt lat="48.068157" lon="8.435380">
        <ele>772.562042</ele>
        <time>2019-05-01T10:20:50.000Z</time>
      </trkpt>
      <trkpt lat="48.068170" lon="8.435241">
        <ele>772.658264</ele>
        <time>2019-05-01T10:20:58.000Z</time>
      </trkpt>
      <trkpt lat="48.068214" lon="8.435102">
        <ele>772.763707</ele>
        <time>2019-05-01T10:21:07.000Z</time>
      </trkpt>
      <trkpt lat="48.068233" lon="8.434949">
        <ele>772.870393</ele>
        <time>2019-05-01T10:21:18.000Z</time>
      </trkpt>
      <trkpt lat="48.068230" lon="8.434811">
        <ele>772.965050</ele>
        <time>2019-05-01T10:21:25.000Z</time>
      </trkpt>
      <trkpt lat="48.068237" lon="8.434658">
        <ele>773.070186</ele>
        <time>2019-05-01T10:21:30.000Z</time>
      </trkpt>
      <trkpt lat="48.068237" lon="8.434509">
        <ele>773.172334</ele>
        <time>2019-05-01T10:21:37.000Z</time>
      </trkpt>
      <trkpt lat="48.068240" lon="8.434353">
        <ele>773.279326</ele>
        <time>2019-05-01T10:21:41.000Z</time>
      </trkpt>
      <trkpt lat="48.068310" lon="8.434257">
        <ele>773.376735</ele>
        <time>2019-05-01T10:21:52.000Z</time>
      </trkpt>
      <trkpt lat="48.068314" lon="8.434120">
        <ele>773.470746</ele>
        <time>2019-05-01T10:21:58.000Z</time>
      </trkpt>
      <trkpt lat="48.068295" lon="8.433979">
        <ele>773.569355</ele>
        <time>2019-05-01T10:22:04.000Z</time>
      </trkpt>
      <trkpt lat="48.068280" lon="8.433831">
        <ele>773.580067</ele>
        <time>2019-05-01T10:22:10.000Z</time>
      </trkpt>
      <trkpt lat="48.068290" lon="8.433686">
        <ele>773.551386</ele>
        <time>2019-05-01T10:22:18.000Z</time>
      </trkpt>
      <trkpt lat="48.068336" lon="8.433570">
        <ele>773.524847</ele>
        <time>2019-05-01T10:22:26.000Z</time>
      </trkpt>
      <trkpt lat="48.068336" lon="8.433434">
        <ele>773.498088</ele>
        <time>2019-05-01T10:22:38.000Z</time>
      </trkpt>
      <trkpt lat="48.068370" lon="8.433311">
        <ele>773.471899</ele>
        <time>2019-05-01T10:22:47.000Z</time>
      </trkpt>
      <trkpt lat="48.068390" lon="8.433179">
        <ele>773.445268</ele>
        <time>2019-05-01T10:22:54.000Z</time>
      </trkpt>
      <trkpt lat="48.068386" lon="8.432996">
        <ele>773.409243</ele>
        <time>2019-05-01T10:23:00.000Z</time>
      </trkpt>
      <trkpt lat="48.068360" lon="8.432856">
        <ele>773.380653</ele>
        <time>2019-05-01T10:23:07.000Z</time>
      </trkpt>
      <trkpt lat="48.068363" lon="8.432708">
        <ele>773.351520</ele>
        <time>2019-05-01T10:23:13.000Z</time>
      </trkpt>
      <trkpt lat="48.068382" lon="8.432560">
        <ele>773.321868</ele>
        <time>2019-05-01T10:23:19.000Z</time>
      </trkpt>
      <trkpt lat="48.068394" lon="8.432422">
        <ele>773.294488</ele>
        <time>2019-05-01T10:23:29.000Z</time>
      </trkpt>
      <trkpt lat="48.068330" lon="8.432315">
        <ele>773.266233</ele>
        <time>2019-05-01T10:23:37.000Z</time>
      </trkpt>
      <trkpt lat="48.068340" lon="8.432167">
        <ele>773.236965</ele>
        <time>2019-05-01T10:23:41.000Z</time>
      </trkpt>
      <trkpt lat="48.068320" lon="8.432004">
        <ele>773.204358</ele>
        <time>2019-05-01T10:23:45.000Z</time>
      </trkpt>
      <trkpt lat="48.068287" lon="8.431856">
        <ele>773.173660</ele>
        <time>2019-05-01T10:23:50.000Z</time>
      </trkpt>
      <trkpt lat="48.068283" lon="8.431721">
        <ele>773.147073</ele>
        <time>2019-05-01T10:23:57.000Z</time>
      </trkpt>
      <trkpt lat="48.068275" lon="8.431578">
        <ele>773.118838</ele>
        <time>2019-05-01T10:24:04.000Z</time>
      </trkpt>
      <trkpt lat="48.068317" lon="8.431455">
        <ele>773.091661</ele>
        <time>2019-05-01T10:24:14.000Z</time>
      </trkpt>
      <trkpt lat="48.068344" lon="8.431320">
        <ele>773.058526</ele>
        <time>2019-05-01T10:24:22.000Z</time>
      </trkpt>
      <trkpt lat="48.068356" lon="8.431180">
        <ele>773.009434</ele>
        <time>2019-05-01T10:24:28.000Z</time>
      </trkpt>
      <trkpt lat="48.068370" lon="8.431027">
        <ele>772.955722</ele>
        <time>2019-05-01T10:24:34.000Z</time>
      </trkpt>
      <trkpt lat="48.068367" lon="8.430873">
        <ele>772.902137</ele>
        <time>2019-05-01T10:24:41.000Z</time>
      </trkpt>
      <trkpt lat="48.068382" lon="8.430733">
        <ele>772.852822</ele>
        <time>2019-05-01T10:24:46.000Z</time>
      </trkpt>
      <trkpt lat="48.068375" lon="8.430577">
        <ele>772.798441</ele>
        <time>2019-05-01T10:24:54.000Z</time>
      </trkpt>
      <trkpt lat="48.068340" lon="8.430427">
        <ele>772.743181</ele>
        <time>2019-05-01T10:25:01.000Z</time>
      </trkpt>
      <trkpt lat="48.068317" lon="8.430284">
        <ele>772.692024</ele>
        <time>2019-05-01T10:25:07.000Z</time>
      </trkpt>
      <trkpt lat="48.068270" lon="8.430150">
        <ele>772.639387</ele>
        <time>2019-05-01T10:25:14.000Z</time>
      </trkpt>
      <trkpt lat="48.068250" lon="8.430012">
        <ele>772.590274</ele>
        <time>2019-05-01T10:25:20.000Z</time>
      </trkpt>
      <trkpt lat="48.068203" lon="8.429866">
        <ele>772.533908</ele>
        <time>2019-05-01T10:25:29.000Z</time>
      </trkpt>
      <trkpt lat="48.068165" lon="8.429734">
        <ele>772.483918</ele>
        <time>2019-05-01T10:25:34.000Z</time>
      </trkpt>
      <trkpt lat="48.068142" lon="8.429590">
        <ele>772.432423</ele>
        <time>2019-05-01T10:25:42.000Z</time>
      </trkpt>
      <trkpt lat="48.068123" lon="8.429447">
        <ele>772.381712</ele>
        <time>2019-05-01T10:25:48.000Z</time>
      </trkpt>
      <trkpt lat="48.068150" lon="8.429305">
        <ele>772.330363</ele>
        <time>2019-05-01T10:25:54.000Z</time>
      </trkpt>
      <trkpt lat="48.068165" lon="8.429161">
        <ele>772.279673</ele>
        <time>2019-05-01T10:26:01.000Z</time>
      </trkpt>
      <trkpt lat="48.068165" lon="8.429004">
        <ele>772.225067</ele>
        <time>2019-05-01T10:26:09.000Z</time>
      </trkpt>
      <trkpt lat="48.068170" lon="8.428858">
        <ele>772.174220</ele>
        <time>2019-05-01T10:26:15.000Z</time>
      </trkpt>
      <trkpt lat="48.068203" lon="8.428719">
        <ele>772.133033</ele>
        <time>2019-05-01T10:26:22.000Z</time>
      </trkpt>
      <trkpt lat="48.068214" lon="8.428576">
        <ele>772.125524</ele>
        <time>2019-05-01T10:26:31.000Z</time>
      </trkpt>
      <trkpt lat="48.068200" lon="8.428444">
        <ele>772.118552</ele>
        <time>2019-05-01T10:26:38.000Z</time>
      </trkpt>
      <trkpt lat="48.068214" lon="8.428304">
        <ele>772.111168</ele>
        <time>2019-05-01T10:26:43.000Z</time>
      </trkpt>
      <trkpt lat="48.068230" lon="8.428140">
        <ele>772.102522</ele>
        <time>2019-05-01T10:26:52.000Z</time>
      </trkpt>
      <trkpt lat="48.068195" lon="8.428015">
        <ele>772.095452</ele>
        <time>2019-05-01T10:26:58.000Z</time>
      </trkpt>
      <trkpt lat="48.068184" lon="8.427882">
        <ele>772.088461</ele>
        <time>2019-05-01T10:27:03.000Z</time>
      </trkpt>
      <trkpt lat="48.068172" lon="8.427742">
        <ele>772.081098</ele>
        <time>2019-05-01T10:27:08.000Z</time>
      </trkpt>
      <trkpt lat="48.068146" lon="8.427609">
        <ele>772.073870</ele>
        <time>2019-05-01T10:27:18.000Z</time>
      </trkpt>
      <trkpt lat="48.068165" lon="8.427464">
        <ele>772.066162</ele>
        <time>2019-05-01T10:27:26.000Z</time>
      </trkpt>
      <trkpt lat="48.068190" lon="8.427332">
        <ele>772.059005</ele>
        <time>2019-05-01T10:27:31.000Z</time>
      </trkpt>
      <trkpt lat="48.068184" lon="8.427179">
        <ele>772.051010</ele>
        <time>2019-05-01T10:27:38.000Z</time>
      </trkpt>
      <trkpt lat="48.068172" lon="8.427033">
        <ele>772.043336</ele>
        <time>2019-05-01T10:27:45.000Z</time>
      </trkpt>
      <trkpt lat="48.068153" lon="8.426901">
        <ele>772.036293</ele>
        <time>2019-05-01T10:27:51.000Z</time>
      </trkpt>
      <trkpt lat="48.068180" lon="8.426763">
        <ele>772.028792</ele>
        <time>2019-05-01T10:27:57.000Z</time>
      </trkpt>
      <trkpt lat="48.068214" lon="8.426632">
        <ele>772.021461</ele>
        <time>2019-05-01T10:28:02.000Z</time>
      </trkpt>
      <trkpt lat="48.068300" lon="8.426536">
        <ele>772.013085</ele>
        <time>2019-05-01T10:28:08.000Z</time>
      </trkpt>
      <trkpt lat="48.068360" lon="8.426424">
        <ele>772.005597</ele>
        <time>2019-05-01T10:28:13.000Z</time>
      </trkpt>
      <trkpt lat="48.068413" lon="8.426292">
        <ele>771.997564</ele>
        <time>2019-05-01T10:28:20.000Z</time>
      </trkpt>
      <trkpt lat="48.068470" lon="8.426177">
        <ele>772.071428</ele>
        <time>2019-05-01T10:28:28.000Z</time>
      </trkpt>
      <trkpt lat="48.068504" lon="8.426037">
        <ele>772.210058</ele>
        <time>2019-05-01T10:28:35.000Z</time>
      </trkpt>
      <trkpt lat="48.068550" lon="8.425897">
        <ele>772.355248</ele>
        <time>2019-05-01T10:28:42.000Z</time>
      </trkpt>
      <trkpt lat="48.068626" lon="8.425633">
        <ele>772.622770</ele>
        <time>2019-05-01T10:29:47.000Z</time>
      </trkpt>
      <trkpt lat="48.068650" lon="8.425494">
        <ele>772.756380</ele>
        <time>2019-05-01T10:29:55.000Z</time>
      </trkpt>
      <trkpt lat="48.068680" lon="8.425365">
        <ele>772.883496</ele>
        <time>2019-05-01T10:30:04.000Z</time>
      </trkpt>
      <trkpt lat="48.068700" lon="8.425235">
        <ele>773.007646</ele>
        <time>2019-05-01T10:30:12.000Z</time>
      </trkpt>
      <trkpt lat="48.068695" lon="8.425098">
        <ele>773.135336</ele>
        <time>2019-05-01T10:30:20.000Z</time>
      </trkpt>
      <trkpt lat="48.068710" lon="8.424961">
        <ele>773.264535</ele>
        <time>2019-05-01T10:30:28.000Z</time>
      </trkpt>
      <trkpt lat="48.068726" lon="8.424814">
        <ele>773.403144</ele>
        <time>2019-05-01T10:30:36.000Z</time>
      </trkpt>
      <trkpt lat="48.068770" lon="8.424699">
        <ele>773.526471</ele>
        <time>2019-05-01T10:30:42.000Z</time>
      </trkpt>
      <trkpt lat="48.068817" lon="8.424572">
        <ele>773.661578</ele>
        <time>2019-05-01T10:30:49.000Z</time>
      </trkpt>
      <trkpt lat="48.068882" lon="8.424471">
        <ele>773.792077</ele>
        <time>2019-05-01T10:30:57.000Z</time>
      </trkpt>
      <trkpt lat="48.068960" lon="8.424365">
        <ele>773.938816</ele>
        <time>2019-05-01T10:31:06.000Z</time>
      </trkpt>
      <trkpt lat="48.068966" lon="8.424230">
        <ele>774.064731</ele>
        <time>2019-05-01T10:31:13.000Z</time>
      </trkpt>
      <trkpt lat="48.068974" lon="8.424091">
        <ele>774.194570</ele>
        <time>2019-05-01T10:31:20.000Z</time>
      </trkpt>
      <trkpt lat="48.069004" lon="8.423948">
        <ele>774.334057</ele>
        <time>2019-05-01T10:31:32.000Z</time>
      </trkpt>
      <trkpt lat="48.069070" lon="8.423845">
        <ele>774.466863</ele>
        <time>2019-05-01T10:31:39.000Z</time>
      </trkpt>
      <trkpt lat="48.069122" lon="8.423729">
        <ele>774.522091</ele>
        <time>2019-05-01T10:31:48.000Z</time>
      </trkpt>
      <trkpt lat="48.069150" lon="8.423591">
        <ele>774.553369</ele>
        <time>2019-05-01T10:31:54.000Z</time>
      </trkpt>
      <trkpt lat="48.069160" lon="8.423451">
        <ele>774.583905</ele>
        <time>2019-05-01T10:32:00.000Z</time>
      </trkpt>
      <trkpt lat="48.069200" lon="8.423318">
        <ele>774.615536</ele>
        <time>2019-05-01T10:32:09.000Z</time>
      </trkpt>
      <trkpt lat="48.069252" lon="8.423206">
        <ele>774.645114</ele>
        <time>2019-05-01T10:32:16.000Z</time>
      </trkpt>
      <trkpt lat="48.069305" lon="8.423082">
        <ele>774.677037</ele>
        <time>2019-05-01T10:32:23.000Z</time>
      </trkpt>
      <trkpt lat="48.069336" lon="8.422949">
        <ele>774.707586</ele>
        <time>2019-05-01T10:32:29.000Z</time>
      </trkpt>
      <trkpt lat="48.069380" lon="8.422829">
        <ele>774.737272</ele>
        <time>2019-05-01T10:32:37.000Z</time>
      </trkpt>
      <trkpt lat="48.069447" lon="8.422734">
        <ele>774.767227</ele>
        <time>2019-05-01T10:32:44.000Z</time>
      </trkpt>
      <trkpt lat="48.069527" lon="8.422644">
        <ele>774.799710</ele>
        <time>2019-05-01T10:32:52.000Z</time>
      </trkpt>
      <trkpt lat="48.069590" lon="8.422535">
        <ele>774.830965</ele>
        <time>2019-05-01T10:33:00.000Z</time>
      </trkpt>
      <trkpt lat="48.069645" lon="8.422421">
        <ele>774.861460</ele>
        <time>2019-05-01T10:33:07.000Z</time>
      </trkpt>
      <trkpt lat="48.069710" lon="8.422309">
        <ele>774.893632</ele>
        <time>2019-05-01T10:33:15.000Z</time>
      </trkpt>
      <trkpt lat="48.069760" lon="8.422194">
        <ele>774.923387</ele>
        <time>2019-05-01T10:33:21.000Z</time>
      </trkpt>
      <trkpt lat="48.069800" lon="8.422069">
        <ele>774.953444</ele>
        <time>2019-05-01T10:33:28.000Z</time>
      </trkpt>
      <trkpt lat="48.069840" lon="8.421933">
        <ele>774.985670</ele>
        <time>2019-05-01T10:33:34.000Z</time>
      </trkpt>
      <trkpt lat="48.069900" lon="8.421826">
        <ele>775.015963</ele>
        <time>2019-05-01T10:33:42.000Z</time>
      </trkpt>
      <trkpt lat="48.069942" lon="8.421697">
        <ele>775.047084</ele>
        <time>2019-05-01T10:33:50.000Z</time>
      </trkpt>
      <trkpt lat="48.070000" lon="8.421578">
        <ele>775.079028</ele>
        <time>2019-05-01T10:33:58.000Z</time>
      </trkpt>
      <trkpt lat="48.070057" lon="8.421445">
        <ele>775.093419</ele>
        <time>2019-05-01T10:34:05.000Z</time>
      </trkpt>
      <trkpt lat="48.070133" lon="8.421198">
        <ele>775.113537</ele>
        <time>2019-05-01T10:35:19.000Z</time>
      </trkpt>
      <trkpt lat="48.070190" lon="8.421085">
        <ele>775.124012</ele>
        <time>2019-05-01T10:35:27.000Z</time>
      </trkpt>
      <trkpt lat="48.070270" lon="8.420995">
        <ele>775.135093</ele>
        <time>2019-05-01T10:35:35.000Z</time>
      </trkpt>
      <trkpt lat="48.070324" lon="8.420877">
        <ele>775.145674</ele>
        <time>2019-05-01T10:35:43.000Z</time>
      </trkpt>
      <trkpt lat="48.070396" lon="8.420795">
        <ele>775.155692</ele>
        <time>2019-05-01T10:35:49.000Z</time>
      </trkpt>
      <trkpt lat="48.070465" lon="8.420680">
        <ele>775.167126</ele>
        <time>2019-05-01T10:35:57.000Z</time>
      </trkpt>
      <trkpt lat="48.070538" lon="8.420562">
        <ele>775.179023</ele>
        <time>2019-05-01T10:36:04.000Z</time>
      </trkpt>
      <trkpt lat="48.070610" lon="8.420463">
        <ele>775.189849</ele>
        <time>2019-05-01T10:36:11.000Z</time>
      </trkpt>
      <trkpt lat="48.070675" lon="8.420356">
        <ele>775.200548</ele>
        <time>2019-05-01T10:36:19.000Z</time>
      </trkpt>
      <trkpt lat="48.070755" lon="8.420275">
        <ele>775.211242</ele>
        <time>2019-05-01T10:36:25.000Z</time>
      </trkpt>
      <trkpt lat="48.070827" lon="8.420182">
        <ele>775.221772</ele>
        <time>2019-05-01T10:36:32.000Z</time>
      </trkpt>
      <trkpt lat="48.070900" lon="8.420073">
        <ele>775.233189</ele>
        <time>2019-05-01T10:36:40.000Z</time>
      </trkpt>
      <trkpt lat="48.070976" lon="8.419976">
        <ele>775.244249</ele>
        <time>2019-05-01T10:36:49.000Z</time>
      </trkpt>
      <trkpt lat="48.071007" lon="8.419847">
        <ele>775.254391</ele>
        <time>2019-05-01T10:36:57.000Z</time>
      </trkpt>
      <trkpt lat="48.071033" lon="8.419700">
        <ele>775.265641</ele>
        <time>2019-05-01T10:37:04.000Z</time>
      </trkpt>
      <trkpt lat="48.071064" lon="8.419567">
        <ele>775.276062</ele>
        <time>2019-05-01T10:37:13.000Z</time>
      </trkpt>
      <trkpt lat="48.071125" lon="8.419455">
        <ele>775.292246</ele>
        <time>2019-05-01T10:37:23.000Z</time>
      </trkpt>
      <trkpt lat="48.071194" lon="8.419354">
        <ele>775.316031</ele>
        <time>2019-05-01T10:37:31.000Z</time>
      </trkpt>
      <trkpt lat="48.071274" lon="8.419286">
        <ele>775.338703</ele>
        <time>2019-05-01T10:37:37.000Z</time>
      </trkpt>
      <trkpt lat="48.071354" lon="8.419210">
        <ele>775.362055</ele>
        <time>2019-05-01T10:37:45.000Z</time>
      </trkpt>
      <trkpt lat="48.071430" lon="8.419106">
        <ele>775.387433</ele>
        <time>2019-05-01T10:37:53.000Z</time>
      </trkpt>
      <trkpt lat="48.071510" lon="8.419015">
        <ele>775.412196</ele>
        <time>2019-05-01T10:38:02.000Z</time>
      </trkpt>
      <trkpt lat="48.071587" lon="8.418894">
        <ele>775.439710</ele>
        <time>2019-05-01T10:38:09.000Z</time>
      </trkpt>
      <trkpt lat="48.071670" lon="8.418839">
        <ele>775.462080</ele>
        <time>2019-05-01T10:38:15.000Z</time>
      </trkpt>
      <trkpt lat="48.071735" lon="8.418740">
        <ele>775.484934</ele>
        <time>2019-05-01T10:38:21.000Z</time>
      </trkpt>
      <trkpt lat="48.071808" lon="8.418654">
        <ele>775.507829</ele>
        <time>2019-05-01T10:38:29.000Z</time>
      </trkpt>
      <trkpt lat="48.071870" lon="8.418553">
        <ele>775.530413</ele>
        <time>2019-05-01T10:38:37.000Z</time>
      </trkpt>
      <trkpt lat="48.071823" lon="8.418426">
        <ele>775.554319</ele>
        <time>2019-05-01T10:38:48.000Z</time>
      </trkpt>
      <trkpt lat="48.071740" lon="8.418334">
        <ele>775.579772</ele>
        <time>2019-05-01T10:38:59.000Z</time>
      </trkpt>
      <trkpt lat="48.071690" lon="8.418220">
        <ele>775.602226</ele>
        <time>2019-05-01T10:39:04.000Z</time>
      </trkpt>
      <trkpt lat="48.071620" lon="8.418119">
        <ele>775.626188</ele>
        <time>2019-05-01T10:39:11.000Z</time>
      </trkpt>
      <trkpt lat="48.071556" lon="8.418024">
        <ele>775.648402</ele>
        <time>2019-05-01T10:39:20.000Z</time>
      </trkpt>
      <trkpt lat="48.071507" lon="8.417910">
        <ele>775.670722</ele>
        <time>2019-05-01T10:39:27.000Z</time>
      </trkpt>
      <trkpt lat="48.071490" lon="8.417773">
        <ele>775.693667</ele>
        <time>2019-05-01T10:39:35.000Z</time>
      </trkpt>
      <trkpt lat="48.071503" lon="8.417640">
        <ele>775.715801</ele>
        <time>2019-05-01T10:39:42.000Z</time>
      </trkpt>
      <trkpt lat="48.071476" lon="8.417505">
        <ele>775.737548</ele>
        <time>2019-05-01T10:39:48.000Z</time>
      </trkpt>
      <trkpt lat="48.071480" lon="8.417369">
        <ele>775.757542</ele>
        <time>2019-05-01T10:39:55.000Z</time>
      </trkpt>
      <trkpt lat="48.071518" lon="8.417241">
        <ele>775.778114</ele>
        <time>2019-05-01T10:40:04.000Z</time>
      </trkpt>
      <trkpt lat="48.071550" lon="8.417095">
        <ele>775.800682</ele>
        <time>2019-05-01T10:40:11.000Z</time>
      </trkpt>
      <trkpt lat="48.071594" lon="8.416967">
        <ele>775.821824</ele>
        <time>2019-05-01T10:40:20.000Z</time>
      </trkpt>
      <trkpt lat="48.071667" lon="8.416880">
        <ele>775.842336</ele>
        <time>2019-05-01T10:40:25.000Z</time>
      </trkpt>
      <trkpt lat="48.071663" lon="8.416745">
        <ele>775.862184</ele>
        <time>2019-05-01T10:40:31.000Z</time>
      </trkpt>
      <trkpt lat="48.071650" lon="8.416607">
        <ele>775.882653</ele>
        <time>2019-05-01T10:40:37.000Z</time>
      </trkpt>
      <trkpt lat="48.071632" lon="8.416463">
        <ele>775.904170</ele>
        <time>2019-05-01T10:40:45.000Z</time>
      </trkpt>
      <trkpt lat="48.071648" lon="8.416318">
        <ele>775.925755</ele>
        <time>2019-05-01T10:40:51.000Z</time>
      </trkpt>
      <trkpt lat="48.071636" lon="8.416173">
        <ele>775.947215</ele>
        <time>2019-05-01T10:41:01.000Z</time>
      </trkpt>
      <trkpt lat="48.071617" lon="8.416040">
        <ele>775.967191</ele>
        <time>2019-05-01T10:41:08.000Z</time>
      </trkpt>
      <trkpt lat="48.071617" lon="8.415891">
        <ele>775.989075</ele>
        <time>2019-05-01T10:41:15.000Z</time>
      </trkpt>
      <trkpt lat="48.071580" lon="8.415752">
        <ele>776.011051</ele>
        <time>2019-05-01T10:41:22.000Z</time>
      </trkpt>
      <trkpt lat="48.071545" lon="8.415606">
        <ele>776.033833</ele>
        <time>2019-05-01T10:41:29.000Z</time>
      </trkpt>
      <trkpt lat="48.071520" lon="8.415466">
        <ele>776.055118</ele>
        <time>2019-05-01T10:41:38.000Z</time>
      </trkpt>
      <trkpt lat="48.071510" lon="8.415320">
        <ele>776.076674</ele>
        <time>2019-05-01T10:41:44.000Z</time>
      </trkpt>
      <trkpt lat="48.071503" lon="8.415177">
        <ele>776.097733</ele>
        <time>2019-05-01T10:41:51.000Z</time>
      </trkpt>
      <trkpt lat="48.071476" lon="8.415036">
        <ele>776.119276</ele>
        <time>2019-05-01T10:41:57.000Z</time>
      </trkpt>
      <trkpt lat="48.071476" lon="8.414896">
        <ele>776.145555</ele>
        <time>2019-05-01T10:42:07.000Z</time>
      </trkpt>
      <trkpt lat="48.071487" lon="8.414743">
        <ele>776.174967</ele>
        <time>2019-05-01T10:42:15.000Z</time>
      </trkpt>
      <trkpt lat="48.071476" lon="8.414604">
        <ele>776.201721</ele>
        <time>2019-05-01T10:42:20.000Z</time>
      </trkpt>
      <trkpt lat="48.071476" lon="8.414450">
        <ele>776.231155</ele>
        <time>2019-05-01T10:42:27.000Z</time>
      </trkpt>
      <trkpt lat="48.071434" lon="8.414319">
        <ele>776.258926</ele>
        <time>2019-05-01T10:42:33.000Z</time>
      </trkpt>
      <trkpt lat="48.071423" lon="8.414184">
        <ele>776.284920</ele>
        <time>2019-05-01T10:42:42.000Z</time>
      </trkpt>
      <trkpt lat="48.071434" lon="8.414050">
        <ele>776.310725</ele>
        <time>2019-05-01T10:42:48.000Z</time>
      </trkpt>
      <trkpt lat="48.071327" lon="8.414026">
        <ele>776.341673</ele>
        <time>2019-05-01T10:43:01.000Z</time>
      </trkpt>
      <trkpt lat="48.071293" lon="8.413896">
        <ele>776.368356</ele>
        <time>2019-05-01T10:43:31.000Z</time>
      </trkpt>
      <trkpt lat="48.071247" lon="8.413776">
        <ele>776.394798</ele>
        <time>2019-05-01T10:43:40.000Z</time>
      </trkpt>
      <trkpt lat="48.071260" lon="8.413632">
        <ele>776.422571</ele>
        <time>2019-05-01T10:43:49.000Z</time>
      </trkpt>
      <trkpt lat="48.071270" lon="8.413497">
        <ele>776.448532</ele>
        <time>2019-05-01T10:43:55.000Z</time>
      </trkpt>
      <trkpt lat="48.071255" lon="8.413354">
        <ele>776.476199</ele>
        <time>2019-05-01T10:44:03.000Z</time>
      </trkpt>
      <trkpt lat="48.071300" lon="8.413213">
        <ele>776.506065</ele>
        <time>2019-05-01T10:44:14.000Z</time>
      </trkpt>
      <trkpt lat="48.071310" lon="8.413054">
        <ele>776.536590</ele>
        <time>2019-05-01T10:44:19.000Z</time>
      </trkpt>
      <trkpt lat="48.071312" lon="8.412890">
        <ele>776.567941</ele>
        <time>2019-05-01T10:44:25.000Z</time>
      </trkpt>
      <trkpt lat="48.071323" lon="8.412749">
        <ele>776.595074</ele>
        <time>2019-05-01T10:44:31.000Z</time>
      </trkpt>
      <trkpt lat="48.071304" lon="8.412600">
        <ele>776.624067</ele>
        <time>2019-05-01T10:44:38.000Z</time>
      </trkpt>
      <trkpt lat="48.071304" lon="8.412443">
        <ele>776.956568</ele>
        <time>2019-05-01T10:44:45.000Z</time>
      </trkpt>
      <trkpt lat="48.071335" lon="8.412307">
        <ele>777.427767</ele>
        <time>2019-05-01T10:44:53.000Z</time>
      </trkpt>
      <trkpt lat="48.071358" lon="8.412164">
        <ele>777.910078</ele>
        <time>2019-05-01T10:45:00.000Z</time>
      </trkpt>
      <trkpt lat="48.071396" lon="8.412014">
        <ele>778.436114</ele>
        <time>2019-05-01T10:45:08.000Z</time>
      </trkpt>
      <trkpt lat="48.071384" lon="8.411861">
        <ele>778.941268</ele>
        <time>2019-05-01T10:45:15.000Z</time>
      </trkpt>
      <trkpt lat="48.071312" lon="8.411758">
        <ele>779.430064</ele>
        <time>2019-05-01T10:45:20.000Z</time>
      </trkpt>
      <trkpt lat="48.071266" lon="8.411612">
        <ele>779.959372</ele>
        <time>2019-05-01T10:45:38.000Z</time>
      </trkpt>
      <trkpt lat="48.071125" lon="8.411493">
        <ele>780.753764</ele>
        <time>2019-05-01T10:47:17.000Z</time>
      </trkpt>
      <trkpt lat="48.071040" lon="8.411575">
        <ele>781.250050</ele>
        <time>2019-05-01T10:47:24.000Z</time>
      </trkpt>
      <trkpt lat="48.071100" lon="8.411474">
        <ele>781.693207</ele>
        <time>2019-05-01T10:49:05.000Z</time>
      </trkpt>
      <trkpt lat="48.071120" lon="8.411608">
        <ele>782.143444</ele>
        <time>2019-05-01T10:49:12.000Z</time>
      </trkpt>
      <trkpt lat="48.071095" lon="8.411470">
        <ele>782.612305</ele>
        <time>2019-05-01T10:52:18.000Z</time>
      </trkpt>
      <trkpt lat="48.071037" lon="8.411359">
        <ele>783.074367</ele>
        <time>2019-05-01T10:52:35.000Z</time>
      </trkpt>
      <trkpt lat="48.070923" lon="8.411209">
        <ele>783.819296</ele>
        <time>2019-05-01T10:53:35.000Z</time>
      </trkpt>
      <trkpt lat="48.070827" lon="8.411130">
        <ele>784.356935</ele>
        <time>2019-05-01T10:53:40.000Z</time>
      </trkpt>
      <trkpt lat="48.070750" lon="8.411049">
        <ele>784.818819</ele>
        <time>2019-05-01T10:53:44.000Z</time>
      </trkpt>
      <trkpt lat="48.070663" lon="8.410975">
        <ele>785.309905</ele>
        <time>2019-05-01T10:53:47.000Z</time>
      </trkpt>
      <trkpt lat="48.070606" lon="8.410838">
        <ele>785.493069</ele>
        <time>2019-05-01T10:53:55.000Z</time>
      </trkpt>
      <trkpt lat="48.070568" lon="8.410702">
        <ele>785.532862</ele>
        <time>2019-05-01T10:54:02.000Z</time>
      </trkpt>
      <trkpt lat="48.070553" lon="8.410514">
        <ele>785.583974</ele>
        <time>2019-05-01T10:54:06.000Z</time>
      </trkpt>
      <trkpt lat="48.070564" lon="8.410378">
        <ele>785.620956</ele>
        <time>2019-05-01T10:54:11.000Z</time>
      </trkpt>
      <trkpt lat="48.070510" lon="8.410245">
        <ele>785.662968</ele>
        <time>2019-05-01T10:54:17.000Z</time>
      </trkpt>
      <trkpt lat="48.070470" lon="8.410123">
        <ele>785.699653</ele>
        <time>2019-05-01T10:54:22.000Z</time>
      </trkpt>
      <trkpt lat="48.070423" lon="8.410003">
        <ele>785.737202</ele>
        <time>2019-05-01T10:54:36.000Z</time>
      </trkpt>
      <trkpt lat="48.070370" lon="8.409869">
        <ele>785.779237</ele>
        <time>2019-05-01T10:54:46.000Z</time>
      </trkpt>
      <trkpt lat="48.070293" lon="8.409791">
        <ele>785.816801</ele>
        <time>2019-05-01T10:54:51.000Z</time>
      </trkpt>
      <trkpt lat="48.070297" lon="8.409636">
        <ele>785.858675</ele>
        <time>2019-05-01T10:55:05.000Z</time>
      </trkpt>
      <trkpt lat="48.070270" lon="8.409507">
        <ele>785.895168</ele>
        <time>2019-05-01T10:55:09.000Z</time>
      </trkpt>
      <trkpt lat="48.070255" lon="8.409357">
        <ele>785.936112</ele>
        <time>2019-05-01T10:55:15.000Z</time>
      </trkpt>
      <trkpt lat="48.070248" lon="8.409218">
        <ele>785.973742</ele>
        <time>2019-05-01T10:55:22.000Z</time>
      </trkpt>
      <trkpt lat="48.070250" lon="8.409046">
        <ele>786.020181</ele>
        <time>2019-05-01T10:55:27.000Z</time>
      </trkpt>
      <trkpt lat="48.070255" lon="8.408858">
        <ele>786.070973</ele>
        <time>2019-05-01T10:55:31.000Z</time>
      </trkpt>
      <trkpt lat="48.070270" lon="8.408711">
        <ele>786.111116</ele>
        <time>2019-05-01T10:55:36.000Z</time>
      </trkpt>
      <trkpt lat="48.070217" lon="8.408602">
        <ele>786.147507</ele>
        <time>2019-05-01T10:55:49.000Z</time>
      </trkpt>
      <trkpt lat="48.070126" lon="8.408639">
        <ele>786.185603</ele>
        <time>2019-05-01T10:55:55.000Z</time>
      </trkpt>
      <trkpt lat="48.070038" lon="8.408669">
        <ele>786.110539</ele>
        <time>2019-05-01T10:56:04.000Z</time>
      </trkpt>
      <trkpt lat="48.069950" lon="8.408615">
        <ele>786.020678</ele>
        <time>2019-05-01T10:56:16.000Z</time>
      </trkpt>
      <trkpt lat="48.069843" lon="8.408623">
        <ele>785.919457</ele>
        <time>2019-05-01T10:56:28.000Z</time>
      </trkpt>
      <trkpt lat="48.069750" lon="8.408625">
        <ele>785.831580</ele>
        <time>2019-05-01T10:56:35.000Z</time>
      </trkpt>
      <trkpt lat="48.069660" lon="8.408584">
        <ele>785.742695</ele>
        <time>2019-05-01T10:56:43.000Z</time>
      </trkpt>
      <trkpt lat="48.069576" lon="8.408525">
        <ele>785.655024</ele>
        <time>2019-05-01T10:56:49.000Z</time>
      </trkpt>
      <trkpt lat="48.069454" lon="8.408539">
        <ele>785.539419</ele>
        <time>2019-05-01T10:56:55.000Z</time>
      </trkpt>
      <trkpt lat="48.069344" lon="8.408536">
        <ele>785.435472</ele>
        <time>2019-05-01T10:57:01.000Z</time>
      </trkpt>
      <trkpt lat="48.069250" lon="8.408536">
        <ele>785.346660</ele>
        <time>2019-05-01T10:57:07.000Z</time>
      </trkpt>
      <trkpt lat="48.069150" lon="8.408523">
        <ele>785.251823</ele>
        <time>2019-05-01T10:57:13.000Z</time>
      </trkpt>
      <trkpt lat="48.069054" lon="8.408525">
        <ele>785.161113</ele>
        <time>2019-05-01T10:57:18.000Z</time>
      </trkpt>
      <trkpt lat="48.068947" lon="8.408521">
        <ele>785.059987</ele>
        <time>2019-05-01T10:57:29.000Z</time>
      </trkpt>
      <trkpt lat="48.068844" lon="8.408500">
        <ele>784.961772</ele>
        <time>2019-05-01T10:57:34.000Z</time>
      </trkpt>
      <trkpt lat="48.068752" lon="8.408438">
        <ele>784.866442</ele>
        <time>2019-05-01T10:57:43.000Z</time>
      </trkpt>
      <trkpt lat="48.068657" lon="8.408381">
        <ele>784.769739</ele>
        <time>2019-05-01T10:57:52.000Z</time>
      </trkpt>
      <trkpt lat="48.068565" lon="8.408376">
        <ele>784.682760</ele>
        <time>2019-05-01T10:57:58.000Z</time>
      </trkpt>
      <trkpt lat="48.068485" lon="8.408283">
        <ele>784.587048</ele>
        <time>2019-05-01T10:58:06.000Z</time>
      </trkpt>
      <trkpt lat="48.068394" lon="8.408277">
        <ele>784.500987</ele>
        <time>2019-05-01T10:58:10.000Z</time>
      </trkpt>
      <trkpt lat="48.068280" lon="8.408218">
        <ele>785.679437</ele>
        <time>2019-05-01T10:58:18.000Z</time>
      </trkpt>
      <trkpt lat="48.068188" lon="8.408252">
        <ele>786.721423</ele>
        <time>2019-05-01T10:58:21.000Z</time>
      </trkpt>
      <trkpt lat="48.068077" lon="8.408242">
        <ele>787.944145</ele>
        <time>2019-05-01T10:58:31.000Z</time>
      </trkpt>
      <trkpt lat="48.067974" lon="8.408265">
        <ele>789.089231</ele>
        <time>2019-05-01T10:58:37.000Z</time>
      </trkpt>
      <trkpt lat="48.067880" lon="8.408315">
        <ele>790.186171</ele>
        <time>2019-05-01T10:58:41.000Z</time>
      </trkpt>
      <trkpt lat="48.067783" lon="8.408321">
        <ele>791.253655</ele>
        <time>2019-05-01T10:58:48.000Z</time>
      </trkpt>
      <trkpt lat="48.067688" lon="8.408349">
        <ele>792.318305</ele>
        <time>2019-05-01T10:58:56.000Z</time>
      </trkpt>
      <trkpt lat="48.067585" lon="8.408388">
        <ele>793.486544</ele>
        <time>2019-05-01T10:59:09.000Z</time>
      </trkpt>
      <trkpt lat="48.067497" lon="8.408444">
        <ele>794.538014</ele>
        <time>2019-05-01T10:59:15.000Z</time>
      </trkpt>
      <trkpt lat="48.067413" lon="8.408497">
        <ele>795.540389</ele>
        <time>2019-05-01T10:59:23.000Z</time>
      </trkpt>
      <trkpt lat="48.067320" lon="8.408560">
        <ele>796.662878</ele>
        <time>2019-05-01T10:59:30.000Z</time>
      </trkpt>
      <trkpt lat="48.067238" lon="8.408634">
        <ele>797.715784</ele>
        <time>2019-05-01T10:59:35.000Z</time>
      </trkpt>
      <trkpt lat="48.067146" lon="8.408690">
        <ele>798.807866</ele>
        <time>2019-05-01T10:59:43.000Z</time>
      </trkpt>
      <trkpt lat="48.067055" lon="8.408721">
        <ele>799.834066</ele>
        <time>2019-05-01T10:59:51.000Z</time>
      </trkpt>
      <trkpt lat="48.066982" lon="8.408802">
        <ele>800.833333</ele>
        <time>2019-05-01T10:59:58.000Z</time>
      </trkpt>
      <trkpt lat="48.066902" lon="8.408903">
        <ele>801.984226</ele>
        <time>2019-05-01T11:00:05.000Z</time>
      </trkpt>
      <trkpt lat="48.066845" lon="8.409026">
        <ele>803.084074</ele>
        <time>2019-05-01T11:00:12.000Z</time>
      </trkpt>
      <trkpt lat="48.066746" lon="8.409109">
        <ele>804.332320</ele>
        <time>2019-05-01T11:00:17.000Z</time>
      </trkpt>
      <trkpt lat="48.066677" lon="8.409201">
        <ele>805.355909</ele>
        <time>2019-05-01T11:00:23.000Z</time>
      </trkpt>
      <trkpt lat="48.066612" lon="8.409319">
        <ele>806.487767</ele>
        <time>2019-05-01T11:00:34.000Z</time>
      </trkpt>
      <trkpt lat="48.066550" lon="8.409438">
        <ele>807.604614</ele>
        <time>2019-05-01T11:00:41.000Z</time>
      </trkpt>
      <trkpt lat="48.066460" lon="8.409492">
        <ele>808.678582</ele>
        <time>2019-05-01T11:00:50.000Z</time>
      </trkpt>
      <trkpt lat="48.066372" lon="8.409532">
        <ele>809.697227</ele>
        <time>2019-05-01T11:00:56.000Z</time>
      </trkpt>
      <trkpt lat="48.066300" lon="8.409635">
        <ele>810.800470</ele>
        <time>2019-05-01T11:01:03.000Z</time>
      </trkpt>
      <trkpt lat="48.066223" lon="8.409704">
        <ele>811.794532</ele>
        <time>2019-05-01T11:01:08.000Z</time>
      </trkpt>
      <trkpt lat="48.066143" lon="8.409767">
        <ele>812.795807</ele>
        <time>2019-05-01T11:01:13.000Z</time>
      </trkpt>
      <trkpt lat="48.066048" lon="8.409823">
        <ele>813.926707</ele>
        <time>2019-05-01T11:01:19.000Z</time>
      </trkpt>
      <trkpt lat="48.065956" lon="8.409863">
        <ele>814.987822</ele>
        <time>2019-05-01T11:01:25.000Z</time>
      </trkpt>
      <trkpt lat="48.065876" lon="8.409919">
        <ele>815.966043</ele>
        <time>2019-05-01T11:01:34.000Z</time>
      </trkpt>
      <trkpt lat="48.065784" lon="8.409936">
        <ele>816.992758</ele>
        <time>2019-05-01T11:01:40.000Z</time>
      </trkpt>
      <trkpt lat="48.065685" lon="8.409953">
        <ele>818.096459</ele>
        <time>2019-05-01T11:01:46.000Z</time>
      </trkpt>
      <trkpt lat="48.065590" lon="8.409994">
        <ele>819.191550</ele>
        <time>2019-05-01T11:01:51.000Z</time>
      </trkpt>
      <trkpt lat="48.065510" lon="8.410066">
        <ele>820.225533</ele>
        <time>2019-05-01T11:02:06.000Z</time>
      </trkpt>
      <trkpt lat="48.065490" lon="8.410198">
        <ele>821.227361</ele>
        <time>2019-05-01T11:02:17.000Z</time>
      </trkpt>
      <trkpt lat="48.065500" lon="8.410341">
        <ele>822.291591</ele>
        <time>2019-05-01T11:02:26.000Z</time>
      </trkpt>
      <trkpt lat="48.065506" lon="8.410480">
        <ele>823.322578</ele>
        <time>2019-05-01T11:02:32.000Z</time>
      </trkpt>
      <trkpt lat="48.065550" lon="8.410606">
        <ele>824.244916</ele>
        <time>2019-05-01T11:02:39.000Z</time>
      </trkpt>
      <trkpt lat="48.065605" lon="8.410723">
        <ele>824.567909</ele>
        <time>2019-05-01T11:02:45.000Z</time>
      </trkpt>
      <trkpt lat="48.065624" lon="8.410864">
        <ele>824.892687</ele>
        <time>2019-05-01T11:02:52.000Z</time>
      </trkpt>
      <trkpt lat="48.065617" lon="8.411021">
        <ele>825.247972</ele>
        <time>2019-05-01T11:03:00.000Z</time>
      </trkpt>
      <trkpt lat="48.065647" lon="8.411155">
        <ele>825.567064</ele>
        <time>2019-05-01T11:03:07.000Z</time>
      </trkpt>
      <trkpt lat="48.065662" lon="8.411297">
        <ele>825.891673</ele>
        <time>2019-05-01T11:03:15.000Z</time>
      </trkpt>
      <trkpt lat="48.065567" lon="8.411432">
        <ele>826.334330</ele>
        <time>2019-05-01T11:04:00.000Z</time>
      </trkpt>
      <trkpt lat="48.065544" lon="8.411572">
        <ele>826.659855</ele>
        <time>2019-05-01T11:04:08.000Z</time>
      </trkpt>
      <trkpt lat="48.065613" lon="8.411471">
        <ele>826.985982</ele>
        <time>2019-05-01T11:04:35.000Z</time>
      </trkpt>
      <trkpt lat="48.065666" lon="8.411601">
        <ele>827.329826</ele>
        <time>2019-05-01T11:04:43.000Z</time>
      </trkpt>
      <trkpt lat="48.065720" lon="8.411727">
        <ele>827.667805</ele>
        <time>2019-05-01T11:04:50.000Z</time>
      </trkpt>
      <trkpt lat="48.065727" lon="8.411884">
        <ele>828.023089</ele>
        <time>2019-05-01T11:04:59.000Z</time>
      </trkpt>
      <trkpt lat="48.065750" lon="8.412022">
        <ele>828.344229</ele>
        <time>2019-05-01T11:05:06.000Z</time>
      </trkpt>
      <trkpt lat="48.065760" lon="8.412160">
        <ele>828.657651</ele>
        <time>2019-05-01T11:05:12.000Z</time>
      </trkpt>
      <trkpt lat="48.065807" lon="8.412297">
        <ele>829.005369</ele>
        <time>2019-05-01T11:05:18.000Z</time>
      </trkpt>
      <trkpt lat="48.065845" lon="8.412425">
        <ele>829.321620</ele>
        <time>2019-05-01T11:05:25.000Z</time>
      </trkpt>
      <trkpt lat="48.065890" lon="8.412548">
        <ele>829.638241</ele>
        <time>2019-05-01T11:05:34.000Z</time>
      </trkpt>
      <trkpt lat="48.065910" lon="8.412699">
        <ele>829.985821</ele>
        <time>2019-05-01T11:05:42.000Z</time>
      </trkpt>
      <trkpt lat="48.065930" lon="8.412845">
        <ele>830.320412</ele>
        <time>2019-05-01T11:05:49.000Z</time>
      </trkpt>
      <trkpt lat="48.065945" lon="8.413011">
        <ele>830.685954</ele>
        <time>2019-05-01T11:05:56.000Z</time>
      </trkpt>
      <trkpt lat="48.065964" lon="8.413156">
        <ele>831.008399</ele>
        <time>2019-05-01T11:06:02.000Z</time>
      </trkpt>
      <trkpt lat="48.065987" lon="8.413289">
        <ele>831.308192</ele>
        <time>2019-05-01T11:06:09.000Z</time>
      </trkpt>
      <trkpt lat="48.065990" lon="8.413433">
        <ele>831.622582</ele>
        <time>2019-05-01T11:06:15.000Z</time>
      </trkpt>
      <trkpt lat="48.065964" lon="8.413569">
        <ele>831.931267</ele>
        <time>2019-05-01T11:06:23.000Z</time>
      </trkpt>
      <trkpt lat="48.065987" lon="8.413713">
        <ele>832.254355</ele>
        <time>2019-05-01T11:06:31.000Z</time>
      </trkpt>
      <trkpt lat="48.065987" lon="8.413856">
        <ele>832.566410</ele>
        <time>2019-05-01T11:06:36.000Z</time>
      </trkpt>
      <trkpt lat="48.065990" lon="8.414002">
        <ele>832.885162</ele>
        <time>2019-05-01T11:06:44.000Z</time>
      </trkpt>
      <trkpt lat="48.066006" lon="8.414143">
        <ele>833.197257</ele>
        <time>2019-05-01T11:06:52.000Z</time>
      </trkpt>
      <trkpt lat="48.066044" lon="8.414270">
        <ele>833.500908</ele>
        <time>2019-05-01T11:06:58.000Z</time>
      </trkpt>
      <trkpt lat="48.066050" lon="8.414407">
        <ele>833.800510</ele>
        <time>2019-05-01T11:07:05.000Z</time>
      </trkpt>
      <trkpt lat="48.066044" lon="8.414543">
        <ele>834.097936</ele>
        <time>2019-05-01T11:07:13.000Z</time>
      </trkpt>
      <trkpt lat="48.066044" lon="8.414681">
        <ele>834.399079</ele>
        <time>2019-05-01T11:07:19.000Z</time>
      </trkpt>
      <trkpt lat="48.066044" lon="8.414825">
        <ele>834.713316</ele>
        <time>2019-05-01T11:07:26.000Z</time>
      </trkpt>
      <trkpt lat="48.066040" lon="8.414967">
        <ele>835.023464</ele>
        <time>2019-05-01T11:07:32.000Z</time>
      </trkpt>
      <trkpt lat="48.066048" lon="8.415136">
        <ele>835.393180</ele>
        <time>2019-05-01T11:07:37.000Z</time>
      </trkpt>
      <trkpt lat="48.066030" lon="8.415282">
        <ele>835.717157</ele>
        <time>2019-05-01T11:07:46.000Z</time>
      </trkpt>
      <trkpt lat="48.066000" lon="8.415440">
        <ele>836.075592</ele>
        <time>2019-05-01T11:07:51.000Z</time>
      </trkpt>
      <trkpt lat="48.066010" lon="8.415583">
        <ele>836.264890</ele>
        <time>2019-05-01T11:07:58.000Z</time>
      </trkpt>
      <trkpt lat="48.066030" lon="8.415723">
        <ele>836.422371</ele>
        <time>2019-05-01T11:08:06.000Z</time>
      </trkpt>
      <trkpt lat="48.066030" lon="8.415864">
        <ele>836.577472</ele>
        <time>2019-05-01T11:08:14.000Z</time>
      </trkpt>
      <trkpt lat="48.066036" lon="8.415998">
        <ele>836.725204</ele>
        <time>2019-05-01T11:08:21.000Z</time>
      </trkpt>
      <trkpt lat="48.066044" lon="8.416140">
        <ele>836.881959</ele>
        <time>2019-05-01T11:08:28.000Z</time>
      </trkpt>
      <trkpt lat="48.066025" lon="8.416283">
        <ele>837.042339</ele>
        <time>2019-05-01T11:08:35.000Z</time>
      </trkpt>
      <trkpt lat="48.066013" lon="8.416420">
        <ele>837.194329</ele>
        <time>2019-05-01T11:08:43.000Z</time>
      </trkpt>
      <trkpt lat="48.065994" lon="8.416552">
        <ele>837.342860</ele>
        <time>2019-05-01T11:08:50.000Z</time>
      </trkpt>
      <trkpt lat="48.065987" lon="8.416691">
        <ele>837.496195</ele>
        <time>2019-05-01T11:08:57.000Z</time>
      </trkpt>
      <trkpt lat="48.065964" lon="8.416822">
        <ele>837.645187</ele>
        <time>2019-05-01T11:09:03.000Z</time>
      </trkpt>
      <trkpt lat="48.065952" lon="8.416957">
        <ele>837.794996</ele>
        <time>2019-05-01T11:09:09.000Z</time>
      </trkpt>
      <trkpt lat="48.065930" lon="8.417087">
        <ele>837.942511</ele>
        <time>2019-05-01T11:09:17.000Z</time>
      </trkpt>
      <trkpt lat="48.065903" lon="8.417228">
        <ele>838.103855</ele>
        <time>2019-05-01T11:09:24.000Z</time>
      </trkpt>
      <trkpt lat="48.065890" lon="8.417366">
        <ele>838.257157</ele>
        <time>2019-05-01T11:09:30.000Z</time>
      </trkpt>
      <trkpt lat="48.065872" lon="8.417519">
        <ele>838.428047</ele>
        <time>2019-05-01T11:09:35.000Z</time>
      </trkpt>
      <trkpt lat="48.065850" lon="8.417661">
        <ele>838.588392</ele>
        <time>2019-05-01T11:09:41.000Z</time>
      </trkpt>
      <trkpt lat="48.065853" lon="8.417799">
        <ele>838.740274</ele>
        <time>2019-05-01T11:09:48.000Z</time>
      </trkpt>
      <trkpt lat="48.065830" lon="8.417933">
        <ele>838.892460</ele>
        <time>2019-05-01T11:09:56.000Z</time>
      </trkpt>
      <trkpt lat="48.065810" lon="8.418071">
        <ele>839.047790</ele>
        <time>2019-05-01T11:10:05.000Z</time>
      </trkpt>
      <trkpt lat="48.065780" lon="8.418205">
        <ele>839.095746</ele>
        <time>2019-05-01T11:10:11.000Z</time>
      </trkpt>
      <trkpt lat="48.065750" lon="8.418345">
        <ele>839.090654</ele>
        <time>2019-05-01T11:10:18.000Z</time>
      </trkpt>
      <trkpt lat="48.065754" lon="8.418495">
        <ele>839.085454</ele>
        <time>2019-05-01T11:10:24.000Z</time>
      </trkpt>
      <trkpt lat="48.065742" lon="8.418643">
        <ele>839.080290</ele>
        <time>2019-05-01T11:10:32.000Z</time>
      </trkpt>
      <trkpt lat="48.065712" lon="8.418772">
        <ele>839.075559</ele>
        <time>2019-05-01T11:10:38.000Z</time>
      </trkpt>
      <trkpt lat="48.065693" lon="8.418919">
        <ele>839.070372</ele>
        <time>2019-05-01T11:10:45.000Z</time>
      </trkpt>
      <trkpt lat="48.065678" lon="8.419072">
        <ele>839.065016</ele>
        <time>2019-05-01T11:10:54.000Z</time>
      </trkpt>
      <trkpt lat="48.065662" lon="8.419228">
        <ele>839.059549</ele>
        <time>2019-05-01T11:11:01.000Z</time>
      </trkpt>
      <trkpt lat="48.065647" lon="8.419372">
        <ele>839.054501</ele>
        <time>2019-05-01T11:11:07.000Z</time>
      </trkpt>
      <trkpt lat="48.065636" lon="8.419532">
        <ele>839.048930</ele>
        <time>2019-05-01T11:11:15.000Z</time>
      </trkpt>
      <trkpt lat="48.065624" lon="8.419691">
        <ele>839.043387</ele>
        <time>2019-05-01T11:11:22.000Z</time>
      </trkpt>
      <trkpt lat="48.065575" lon="8.419831">
        <ele>839.037913</ele>
        <time>2019-05-01T11:11:27.000Z</time>
      </trkpt>
      <trkpt lat="48.065556" lon="8.419979">
        <ele>839.032693</ele>
        <time>2019-05-01T11:11:33.000Z</time>
      </trkpt>
      <trkpt lat="48.065556" lon="8.420117">
        <ele>839.027913</ele>
        <time>2019-05-01T11:11:41.000Z</time>
      </trkpt>
      <trkpt lat="48.065533" lon="8.420257">
        <ele>839.022919</ele>
        <time>2019-05-01T11:11:48.000Z</time>
      </trkpt>
      <trkpt lat="48.065506" lon="8.420388">
        <ele>839.018170</ele>
        <time>2019-05-01T11:11:53.000Z</time>
      </trkpt>
      <trkpt lat="48.065544" lon="8.420518">
        <ele>839.013255</ele>
        <time>2019-05-01T11:11:58.000Z</time>
      </trkpt>
      <trkpt lat="48.065495" lon="8.420632">
        <ele>839.008560</ele>
        <time>2019-05-01T11:12:03.000Z</time>
      </trkpt>
      <trkpt lat="48.065468" lon="8.420763">
        <ele>838.989316</ele>
        <time>2019-05-01T11:12:09.000Z</time>
      </trkpt>
      <trkpt lat="48.065440" lon="8.420898">
        <ele>838.948729</ele>
        <time>2019-05-01T11:12:16.000Z</time>
      </trkpt>
      <trkpt lat="48.065410" lon="8.421045">
        <ele>838.904595</ele>
        <time>2019-05-01T11:12:23.000Z</time>
      </trkpt>
      <trkpt lat="48.065420" lon="8.421194">
        <ele>838.861597</ele>
        <time>2019-05-01T11:12:29.000Z</time>
      </trkpt>
      <trkpt lat="48.065434" lon="8.421341">
        <ele>838.818961</ele>
        <time>2019-05-01T11:12:35.000Z</time>
      </trkpt>
      <trkpt lat="48.065403" lon="8.421489">
        <ele>838.774426</ele>
        <time>2019-05-01T11:12:41.000Z</time>
      </trkpt>
      <trkpt lat="48.065403" lon="8.421638">
        <ele>838.731643</ele>
        <time>2019-05-01T11:12:46.000Z</time>
      </trkpt>
      <trkpt lat="48.065365" lon="8.421767">
        <ele>838.691163</ele>
        <time>2019-05-01T11:12:52.000Z</time>
      </trkpt>
      <trkpt lat="48.065330" lon="8.421894">
        <ele>838.651718</ele>
        <time>2019-05-01T11:13:01.000Z</time>
      </trkpt>
      <trkpt lat="48.065300" lon="8.422036">
        <ele>838.608955</ele>
        <time>2019-05-01T11:13:06.000Z</time>
      </trkpt>
      <trkpt lat="48.065273" lon="8.422168">
        <ele>838.569317</ele>
        <time>2019-05-01T11:13:13.000Z</time>
      </trkpt>
      <trkpt lat="48.065266" lon="8.422325">
        <ele>838.524136</ele>
        <time>2019-05-01T11:13:19.000Z</time>
      </trkpt>
      <trkpt lat="48.065258" lon="8.422462">
        <ele>838.484648</ele>
        <time>2019-05-01T11:13:24.000Z</time>
      </trkpt>
      <trkpt lat="48.065230" lon="8.422619">
        <ele>838.437990</ele>
        <time>2019-05-01T11:13:29.000Z</time>
      </trkpt>
      <trkpt lat="48.065243" lon="8.422756">
        <ele>838.398257</ele>
        <time>2019-05-01T11:13:35.000Z</time>
      </trkpt>
      <trkpt lat="48.065224" lon="8.422895">
        <ele>838.357519</ele>
        <time>2019-05-01T11:13:42.000Z</time>
      </trkpt>
      <trkpt lat="48.065224" lon="8.423034">
        <ele>838.317607</ele>
        <time>2019-05-01T11:13:51.000Z</time>
      </trkpt>
      <trkpt lat="48.065193" lon="8.423159">
        <ele>838.279322</ele>
        <time>2019-05-01T11:14:07.000Z</time>
      </trkpt>
      <trkpt lat="48.065180" lon="8.423350">
        <ele>838.219010</ele>
        <time>2019-05-01T11:14:12.000Z</time>
      </trkpt>
      <trkpt lat="48.065166" lon="8.423493">
        <ele>838.153029</ele>
        <time>2019-05-01T11:14:15.000Z</time>
      </trkpt>
      <trkpt lat="48.065147" lon="8.423648">
        <ele>838.081086</ele>
        <time>2019-05-01T11:14:20.000Z</time>
      </trkpt>
      <trkpt lat="48.065136" lon="8.423797">
        <ele>838.012649</ele>
        <time>2019-05-01T11:14:27.000Z</time>
      </trkpt>
      <trkpt lat="48.065120" lon="8.423933">
        <ele>837.949607</ele>
        <time>2019-05-01T11:14:34.000Z</time>
      </trkpt>
      <trkpt lat="48.065080" lon="8.424086">
        <ele>837.874603</ele>
        <time>2019-05-01T11:14:43.000Z</time>
      </trkpt>
      <trkpt lat="48.065040" lon="8.424233">
        <ele>837.802143</ele>
        <time>2019-05-01T11:14:50.000Z</time>
      </trkpt>
      <trkpt lat="48.065030" lon="8.424374">
        <ele>837.737410</ele>
        <time>2019-05-01T11:14:57.000Z</time>
      </trkpt>
      <trkpt lat="48.064987" lon="8.424493">
        <ele>837.675650</ele>
        <time>2019-05-01T11:15:03.000Z</time>
      </trkpt>
      <trkpt lat="48.064940" lon="8.424634">
        <ele>837.603716</ele>
        <time>2019-05-01T11:15:11.000Z</time>
      </trkpt>
      <trkpt lat="48.064884" lon="8.424769">
        <ele>837.531177</ele>
        <time>2019-05-01T11:15:17.000Z</time>
      </trkpt>
      <trkpt lat="48.064840" lon="8.424900">
        <ele>837.464242</ele>
        <time>2019-05-01T11:15:23.000Z</time>
      </trkpt>
      <trkpt lat="48.064810" lon="8.425046">
        <ele>837.394509</ele>
        <time>2019-05-01T11:15:28.000Z</time>
      </trkpt>
      <trkpt lat="48.064770" lon="8.425180">
        <ele>837.327508</ele>
        <time>2019-05-01T11:15:45.000Z</time>
      </trkpt>
      <trkpt lat="48.064620" lon="8.425105">
        <ele>837.219468</ele>
        <time>2019-05-01T11:16:22.000Z</time>
      </trkpt>
      <trkpt lat="48.064545" lon="8.425014">
        <ele>837.153506</ele>
        <time>2019-05-01T11:16:31.000Z</time>
      </trkpt>
      <trkpt lat="48.064465" lon="8.424929">
        <ele>837.086479</ele>
        <time>2019-05-01T11:16:37.000Z</time>
      </trkpt>
      <trkpt lat="48.064400" lon="8.424818">
        <ele>837.019102</ele>
        <time>2019-05-01T11:16:45.000Z</time>
      </trkpt>
      <trkpt lat="48.064346" lon="8.424691">
        <ele>836.942883</ele>
        <time>2019-05-01T11:16:54.000Z</time>
      </trkpt>
      <trkpt lat="48.064243" lon="8.424469">
        <ele>836.802331</ele>
        <time>2019-05-01T11:17:19.000Z</time>
      </trkpt>
      <trkpt lat="48.064182" lon="8.424366">
        <ele>836.730757</ele>
        <time>2019-05-01T11:17:27.000Z</time>
      </trkpt>
      <trkpt lat="48.064080" lon="8.424299">
        <ele>836.644070</ele>
        <time>2019-05-01T11:17:36.000Z</time>
      </trkpt>
      <trkpt lat="48.064010" lon="8.424156">
        <ele>836.551883</ele>
        <time>2019-05-01T11:17:45.000Z</time>
      </trkpt>
      <trkpt lat="48.063930" lon="8.424032">
        <ele>836.462247</ele>
        <time>2019-05-01T11:17:55.000Z</time>
      </trkpt>
      <trkpt lat="48.063858" lon="8.423945">
        <ele>836.390229</ele>
        <time>2019-05-01T11:18:01.000Z</time>
      </trkpt>
      <trkpt lat="48.063755" lon="8.423906">
        <ele>836.307548</ele>
        <time>2019-05-01T11:18:07.000Z</time>
      </trkpt>
      <trkpt lat="48.063694" lon="8.423794">
        <ele>836.232406</ele>
        <time>2019-05-01T11:18:13.000Z</time>
      </trkpt>
      <trkpt lat="48.063620" lon="8.423679">
        <ele>836.149380</ele>
        <time>2019-05-01T11:18:19.000Z</time>
      </trkpt>
      <trkpt lat="48.063534" lon="8.423608">
        <ele>836.072944</ele>
        <time>2019-05-01T11:18:27.000Z</time>
      </trkpt>
      <trkpt lat="48.063460" lon="8.423499">
        <ele>835.992137</ele>
        <time>2019-05-01T11:18:34.000Z</time>
      </trkpt>
      <trkpt lat="48.063410" lon="8.423377">
        <ele>835.917707</ele>
        <time>2019-05-01T11:18:38.000Z</time>
      </trkpt>
      <trkpt lat="48.063343" lon="8.423277">
        <ele>835.844064</ele>
        <time>2019-05-01T11:18:44.000Z</time>
      </trkpt>
      <trkpt lat="48.063282" lon="8.423151">
        <ele>835.763147</ele>
        <time>2019-05-01T11:18:51.000Z</time>
      </trkpt>
      <trkpt lat="48.063217" lon="8.423027">
        <ele>835.681186</ele>
        <time>2019-05-01T11:18:58.000Z</time>
      </trkpt>
      <trkpt lat="48.063130" lon="8.422982">
        <ele>835.609552</ele>
        <time>2019-05-01T11:19:06.000Z</time>
      </trkpt>
      <trkpt lat="48.063046" lon="8.422922">
        <ele>835.596439</ele>
        <time>2019-05-01T11:19:11.000Z</time>
      </trkpt>
      <trkpt lat="48.062943" lon="8.422907">
        <ele>835.586738</ele>
        <time>2019-05-01T11:19:20.000Z</time>
      </trkpt>
      <trkpt lat="48.062855" lon="8.422832">
        <ele>835.577244</ele>
        <time>2019-05-01T11:19:26.000Z</time>
      </trkpt>
      <trkpt lat="48.062770" lon="8.422771">
        <ele>835.568407</ele>
        <time>2019-05-01T11:19:33.000Z</time>
      </trkpt>
      <trkpt lat="48.062687" lon="8.422728">
        <ele>835.560173</ele>
        <time>2019-05-01T11:19:38.000Z</time>
      </trkpt>
      <trkpt lat="48.062590" lon="8.422677">
        <ele>835.550535</ele>
        <time>2019-05-01T11:19:45.000Z</time>
      </trkpt>
      <trkpt lat="48.062504" lon="8.422620">
        <ele>835.541718</ele>
        <time>2019-05-01T11:19:51.000Z</time>
      </trkpt>
      <trkpt lat="48.062412" lon="8.422607">
        <ele>835.533056</ele>
        <time>2019-05-01T11:19:57.000Z</time>
      </trkpt>
      <trkpt lat="48.062317" lon="8.422578">
        <ele>835.523967</ele>
        <time>2019-05-01T11:20:05.000Z</time>
      </trkpt>
      <trkpt lat="48.062230" lon="8.422528">
        <ele>835.515231</ele>
        <time>2019-05-01T11:20:12.000Z</time>
      </trkpt>
      <trkpt lat="48.062138" lon="8.422541">
        <ele>835.506568</ele>
        <time>2019-05-01T11:20:19.000Z</time>
      </trkpt>
      <trkpt lat="48.062073" lon="8.422656">
        <ele>835.497132</ele>
        <time>2019-05-01T11:20:32.000Z</time>
      </trkpt>
      <trkpt lat="48.062030" lon="8.422775">
        <ele>835.488657</ele>
        <time>2019-05-01T11:20:39.000Z</time>
      </trkpt>
      <trkpt lat="48.061996" lon="8.422911">
        <ele>835.479560</ele>
        <time>2019-05-01T11:20:46.000Z</time>
      </trkpt>
      <trkpt lat="48.061966" lon="8.423049">
        <ele>835.470469</ele>
        <time>2019-05-01T11:20:52.000Z</time>
      </trkpt>
      <trkpt lat="48.061913" lon="8.423171">
        <ele>835.461352</ele>
        <time>2019-05-01T11:21:00.000Z</time>
      </trkpt>
      <trkpt lat="48.061870" lon="8.423315">
        <ele>835.451471</ele>
        <time>2019-05-01T11:21:07.000Z</time>
      </trkpt>
      <trkpt lat="48.061817" lon="8.423447">
        <ele>835.441824</ele>
        <time>2019-05-01T11:21:13.000Z</time>
      </trkpt>
      <trkpt lat="48.061770" lon="8.423586">
        <ele>835.431329</ele>
        <time>2019-05-01T11:21:20.000Z</time>
      </trkpt>
      <trkpt lat="48.061726" lon="8.423707">
        <ele>835.421069</ele>
        <time>2019-05-01T11:21:27.000Z</time>
      </trkpt>
      <trkpt lat="48.061690" lon="8.423834">
        <ele>835.410794</ele>
        <time>2019-05-01T11:21:34.000Z</time>
      </trkpt>
      <trkpt lat="48.061650" lon="8.423953">
        <ele>835.400873</ele>
        <time>2019-05-01T11:21:41.000Z</time>
      </trkpt>
      <trkpt lat="48.061607" lon="8.424092">
        <ele>835.389465</ele>
        <time>2019-05-01T11:21:49.000Z</time>
      </trkpt>
      <trkpt lat="48.061558" lon="8.424202">
        <ele>835.379618</ele>
        <time>2019-05-01T11:21:56.000Z</time>
      </trkpt>
      <trkpt lat="48.061490" lon="8.424297">
        <ele>835.369250</ele>
        <time>2019-05-01T11:22:04.000Z</time>
      </trkpt>
      <trkpt lat="48.061428" lon="8.424430">
        <ele>835.357172</ele>
        <time>2019-05-01T11:22:11.000Z</time>
      </trkpt>
      <trkpt lat="48.061360" lon="8.424522">
        <ele>835.346955</ele>
        <time>2019-05-01T11:22:17.000Z</time>
      </trkpt>
      <trkpt lat="48.061270" lon="8.424552">
        <ele>835.336679</ele>
        <time>2019-05-01T11:22:25.000Z</time>
      </trkpt>
      <trkpt lat="48.061195" lon="8.424635">
        <ele>835.326283</ele>
        <time>2019-05-01T11:22:35.000Z</time>
      </trkpt>
      <trkpt lat="48.061146" lon="8.424766">
        <ele>835.315101</ele>
        <time>2019-05-01T11:22:44.000Z</time>
      </trkpt>
      <trkpt lat="48.061123" lon="8.424919">
        <ele>835.303420</ele>
        <time>2019-05-01T11:22:52.000Z</time>
      </trkpt>
      <trkpt lat="48.061110" lon="8.425220">
        <ele>835.280954</ele>
        <time>2019-05-01T11:24:52.000Z</time>
      </trkpt>
      <trkpt lat="48.061054" lon="8.425324">
        <ele>835.271006</ele>
        <time>2019-05-01T11:25:00.000Z</time>
      </trkpt>
      <trkpt lat="48.061012" lon="8.425450">
        <ele>835.260519</ele>
        <time>2019-05-01T11:25:10.000Z</time>
      </trkpt>
      <trkpt lat="48.060966" lon="8.425579">
        <ele>835.249629</ele>
        <time>2019-05-01T11:25:18.000Z</time>
      </trkpt>
      <trkpt lat="48.060966" lon="8.425723">
        <ele>835.238903</ele>
        <time>2019-05-01T11:25:25.000Z</time>
      </trkpt>
      <trkpt lat="48.060894" lon="8.425808">
        <ele>835.240941</ele>
        <time>2019-05-01T11:25:32.000Z</time>
      </trkpt>
      <trkpt lat="48.060820" lon="8.425916">
        <ele>835.250121</ele>
        <time>2019-05-01T11:25:39.000Z</time>
      </trkpt>
      <trkpt lat="48.060772" lon="8.426043">
        <ele>835.258781</ele>
        <time>2019-05-01T11:25:49.000Z</time>
      </trkpt>
      <trkpt lat="48.060700" lon="8.426131">
        <ele>835.267038</ele>
        <time>2019-05-01T11:25:56.000Z</time>
      </trkpt>
      <trkpt lat="48.060642" lon="8.426247">
        <ele>835.275636</ele>
        <time>2019-05-01T11:26:01.000Z</time>
      </trkpt>
      <trkpt lat="48.060596" lon="8.426360">
        <ele>835.283490</ele>
        <time>2019-05-01T11:26:06.000Z</time>
      </trkpt>
      <trkpt lat="48.060547" lon="8.426488">
        <ele>835.292245</ele>
        <time>2019-05-01T11:26:14.000Z</time>
      </trkpt>
      <trkpt lat="48.060524" lon="8.426622">
        <ele>835.300457</ele>
        <time>2019-05-01T11:26:20.000Z</time>
      </trkpt>
      <trkpt lat="48.060513" lon="8.426781">
        <ele>835.309944</ele>
        <time>2019-05-01T11:26:27.000Z</time>
      </trkpt>
      <trkpt lat="48.060505" lon="8.426928">
        <ele>835.318698</ele>
        <time>2019-05-01T11:26:32.000Z</time>
      </trkpt>
      <trkpt lat="48.060505" lon="8.427068">
        <ele>835.327008</ele>
        <time>2019-05-01T11:26:39.000Z</time>
      </trkpt>
      <trkpt lat="48.060510" lon="8.427222">
        <ele>835.336159</ele>
        <time>2019-05-01T11:26:48.000Z</time>
      </trkpt>
      <trkpt lat="48.060490" lon="8.427364">
        <ele>835.344773</ele>
        <time>2019-05-01T11:26:55.000Z</time>
      </trkpt>
      <trkpt lat="48.060463" lon="8.427503">
        <ele>835.353365</ele>
        <time>2019-05-01T11:27:02.000Z</time>
      </trkpt>
      <trkpt lat="48.060444" lon="8.427638">
        <ele>835.361553</ele>
        <time>2019-05-01T11:27:09.000Z</time>
      </trkpt>
      <trkpt lat="48.060448" lon="8.427774">
        <ele>835.369633</ele>
        <time>2019-05-01T11:27:18.000Z</time>
      </trkpt>
      <trkpt lat="48.060432" lon="8.427917">
        <ele>835.378239</ele>
        <time>2019-05-01T11:27:25.000Z</time>
      </trkpt>
      <trkpt lat="48.060380" lon="8.428129">
        <ele>835.391643</ele>
        <time>2019-05-01T11:27:59.000Z</time>
      </trkpt>
      <trkpt lat="48.060326" lon="8.428236">
        <ele>835.380351</ele>
        <time>2019-05-01T11:28:07.000Z</time>
      </trkpt>
      <trkpt lat="48.060270" lon="8.428348">
        <ele>835.352018</ele>
        <time>2019-05-01T11:28:15.000Z</time>
      </trkpt>
      <trkpt lat="48.060246" lon="8.428477">
        <ele>835.324894</ele>
        <time>2019-05-01T11:28:22.000Z</time>
      </trkpt>
      <trkpt lat="48.060204" lon="8.428616">
        <ele>835.293994</ele>
        <time>2019-05-01T11:28:29.000Z</time>
      </trkpt>
      <trkpt lat="48.060160" lon="8.428761">
        <ele>835.261736</ele>
        <time>2019-05-01T11:28:35.000Z</time>
      </trkpt>
      <trkpt lat="48.060127" lon="8.428901">
        <ele>835.231665</ele>
        <time>2019-05-01T11:28:42.000Z</time>
      </trkpt>
      <trkpt lat="48.060080" lon="8.429020">
        <ele>835.203666</ele>
        <time>2019-05-01T11:28:49.000Z</time>
      </trkpt>
      <trkpt lat="48.060040" lon="8.429153">
        <ele>835.174123</ele>
        <time>2019-05-01T11:28:58.000Z</time>
      </trkpt>
      <trkpt lat="48.060000" lon="8.429290">
        <ele>835.143839</ele>
        <time>2019-05-01T11:29:04.000Z</time>
      </trkpt>
      <trkpt lat="48.059940" lon="8.429405">
        <ele>835.114287</ele>
        <time>2019-05-01T11:29:13.000Z</time>
      </trkpt>
      <trkpt lat="48.059887" lon="8.429526">
        <ele>835.084982</ele>
        <time>2019-05-01T11:29:21.000Z</time>
      </trkpt>
      <trkpt lat="48.059853" lon="8.429653">
        <ele>835.057269</ele>
        <time>2019-05-01T11:29:27.000Z</time>
      </trkpt>
      <trkpt lat="48.059807" lon="8.429781">
        <ele>835.027830</ele>
        <time>2019-05-01T11:29:32.000Z</time>
      </trkpt>
      <trkpt lat="48.059765" lon="8.429928">
        <ele>834.995446</ele>
        <time>2019-05-01T11:29:39.000Z</time>
      </trkpt>
      <trkpt lat="48.059750" lon="8.430073">
        <ele>834.965724</ele>
        <time>2019-05-01T11:29:45.000Z</time>
      </trkpt>
      <trkpt lat="48.059740" lon="8.430223">
        <ele>834.935189</ele>
        <time>2019-05-01T11:29:51.000Z</time>
      </trkpt>
      <trkpt lat="48.059790" lon="8.430361">
        <ele>834.903391</ele>
        <time>2019-05-01T11:30:02.000Z</time>
      </trkpt>
      <trkpt lat="48.059800" lon="8.430516">
        <ele>834.871848</ele>
        <time>2019-05-01T11:30:07.000Z</time>
      </trkpt>
      <trkpt lat="48.059788" lon="8.430674">
        <ele>834.760937</ele>
        <time>2019-05-01T11:30:12.000Z</time>
      </trkpt>
      <trkpt lat="48.059822" lon="8.430823">
        <ele>834.489283</ele>
        <time>2019-05-01T11:30:17.000Z</time>
      </trkpt>
      <trkpt lat="48.059864" lon="8.430967">
        <ele>834.218198</ele>
        <time>2019-05-01T11:30:23.000Z</time>
      </trkpt>
      <trkpt lat="48.059930" lon="8.431167">
        <ele>833.833349</ele>
        <time>2019-05-01T11:32:42.000Z</time>
      </trkpt>
      <trkpt lat="48.059933" lon="8.431304">
        <ele>833.596843</ele>
        <time>2019-05-01T11:32:53.000Z</time>
      </trkpt>
      <trkpt lat="48.059902" lon="8.431438">
        <ele>833.352182</ele>
        <time>2019-05-01T11:33:02.000Z</time>
      </trkpt>
      <trkpt lat="48.059930" lon="8.431582">
        <ele>833.093425</ele>
        <time>2019-05-01T11:34:18.000Z</time>
      </trkpt>
      <trkpt lat="48.059940" lon="8.431729">
        <ele>832.838482</ele>
        <time>2019-05-01T11:34:27.000Z</time>
      </trkpt>
      <trkpt lat="48.059944" lon="8.431870">
        <ele>832.594983</ele>
        <time>2019-05-01T11:34:34.000Z</time>
      </trkpt>
      <trkpt lat="48.059925" lon="8.432019">
        <ele>832.333262</ele>
        <time>2019-05-01T11:34:41.000Z</time>
      </trkpt>
      <trkpt lat="48.059925" lon="8.432171">
        <ele>832.071003</ele>
        <time>2019-05-01T11:34:49.000Z</time>
      </trkpt>
      <trkpt lat="48.059906" lon="8.432321">
        <ele>831.807587</ele>
        <time>2019-05-01T11:34:57.000Z</time>
      </trkpt>
      <trkpt lat="48.059906" lon="8.432482">
        <ele>831.529799</ele>
        <time>2019-05-01T11:35:04.000Z</time>
      </trkpt>
      <trkpt lat="48.059895" lon="8.432636">
        <ele>831.262576</ele>
        <time>2019-05-01T11:35:13.000Z</time>
      </trkpt>
      <trkpt lat="48.059887" lon="8.432775">
        <ele>831.021859</ele>
        <time>2019-05-01T11:35:19.000Z</time>
      </trkpt>
      <trkpt lat="48.059887" lon="8.432926">
        <ele>830.761324</ele>
        <time>2019-05-01T11:35:29.000Z</time>
      </trkpt>
      <trkpt lat="48.059870" lon="8.433060">
        <ele>830.525993</ele>
        <time>2019-05-01T11:35:35.000Z</time>
      </trkpt>
      <trkpt lat="48.059837" lon="8.433213">
        <ele>830.248602</ele>
        <time>2019-05-01T11:35:42.000Z</time>
      </trkpt>
      <trkpt lat="48.059790" lon="8.433340">
        <ele>830.114041</ele>
        <time>2019-05-01T11:35:48.000Z</time>
      </trkpt>
      <trkpt lat="48.059742" lon="8.433461">
        <ele>830.006117</ele>
        <time>2019-05-01T11:35:55.000Z</time>
      </trkpt>
      <trkpt lat="48.059696" lon="8.433586">
        <ele>829.896669</ele>
        <time>2019-05-01T11:36:02.000Z</time>
      </trkpt>
      <trkpt lat="48.059630" lon="8.433706">
        <ele>829.777471</ele>
        <time>2019-05-01T11:36:11.000Z</time>
      </trkpt>
      <trkpt lat="48.059605" lon="8.433851">
        <ele>829.662615</ele>
        <time>2019-05-01T11:36:19.000Z</time>
      </trkpt>
      <trkpt lat="48.059532" lon="8.433939">
        <ele>829.555032</ele>
        <time>2019-05-01T11:36:28.000Z</time>
      </trkpt>
      <trkpt lat="48.059440" lon="8.433949">
        <ele>829.449175</ele>
        <time>2019-05-01T11:36:34.000Z</time>
      </trkpt>
      <trkpt lat="48.059372" lon="8.433847">
        <ele>829.338675</ele>
        <time>2019-05-01T11:36:44.000Z</time>
      </trkpt>
      <trkpt lat="48.059334" lon="8.433707">
        <ele>829.222776</ele>
        <time>2019-05-01T11:36:50.000Z</time>
      </trkpt>
      <trkpt lat="48.059353" lon="8.433567">
        <ele>829.113204</ele>
        <time>2019-05-01T11:36:59.000Z</time>
      </trkpt>
      <trkpt lat="48.059320" lon="8.433430">
        <ele>829.001508</ele>
        <time>2019-05-01T11:37:07.000Z</time>
      </trkpt>
      <trkpt lat="48.059246" lon="8.433326">
        <ele>828.884996</ele>
        <time>2019-05-01T11:37:18.000Z</time>
      </trkpt>
      <trkpt lat="48.059193" lon="8.433193">
        <ele>828.766228</ele>
        <time>2019-05-01T11:37:26.000Z</time>
      </trkpt>
      <trkpt lat="48.059143" lon="8.433080">
        <ele>828.662283</ele>
        <time>2019-05-01T11:37:32.000Z</time>
      </trkpt>
      <trkpt lat="48.059124" lon="8.432937">
        <ele>828.550454</ele>
        <time>2019-05-01T11:37:39.000Z</time>
      </trkpt>
      <trkpt lat="48.059080" lon="8.432807">
        <ele>828.438686</ele>
        <time>2019-05-01T11:37:46.000Z</time>
      </trkpt>
      <trkpt lat="48.059020" lon="8.432696">
        <ele>828.329189</ele>
        <time>2019-05-01T11:37:55.000Z</time>
      </trkpt>
      <trkpt lat="48.058956" lon="8.432601">
        <ele>828.225730</ele>
        <time>2019-05-01T11:38:01.000Z</time>
      </trkpt>
      <trkpt lat="48.058914" lon="8.432475">
        <ele>828.092398</ele>
        <time>2019-05-01T11:38:06.000Z</time>
      </trkpt>
      <trkpt lat="48.058876" lon="8.432346">
        <ele>827.874494</ele>
        <time>2019-05-01T11:38:12.000Z</time>
      </trkpt>
      <trkpt lat="48.058860" lon="8.432199">
        <ele>827.644280</ele>
        <time>2019-05-01T11:38:15.000Z</time>
      </trkpt>
      <trkpt lat="48.058796" lon="8.432096">
        <ele>827.426899</ele>
        <time>2019-05-01T11:38:21.000Z</time>
      </trkpt>
      <trkpt lat="48.058678" lon="8.432015">
        <ele>827.126653</ele>
        <time>2019-05-01T11:39:24.000Z</time>
      </trkpt>
      <trkpt lat="48.058655" lon="8.431773">
        <ele>826.748825</ele>
        <time>2019-05-01T11:40:35.000Z</time>
      </trkpt>
      <trkpt lat="48.058624" lon="8.431642">
        <ele>826.534019</ele>
        <time>2019-05-01T11:40:42.000Z</time>
      </trkpt>
      <trkpt lat="48.058640" lon="8.431503">
        <ele>826.316001</ele>
        <time>2019-05-01T11:40:49.000Z</time>
      </trkpt>
      <trkpt lat="48.058628" lon="8.431349">
        <ele>826.076347</ele>
        <time>2019-05-01T11:40:56.000Z</time>
      </trkpt>
      <trkpt lat="48.058556" lon="8.431265">
        <ele>825.865196</ele>
        <time>2019-05-01T11:41:05.000Z</time>
      </trkpt>
      <trkpt lat="48.058464" lon="8.431296">
        <ele>825.647100</ele>
        <time>2019-05-01T11:41:12.000Z</time>
      </trkpt>
      <trkpt lat="48.058372" lon="8.431336">
        <ele>825.425533</ele>
        <time>2019-05-01T11:41:20.000Z</time>
      </trkpt>
      <trkpt lat="48.058266" lon="8.431376">
        <ele>825.172712</ele>
        <time>2019-05-01T11:41:27.000Z</time>
      </trkpt>
      <trkpt lat="48.058178" lon="8.431411">
        <ele>824.962129</ele>
        <time>2019-05-01T11:41:33.000Z</time>
      </trkpt>
      <trkpt lat="48.058080" lon="8.431414">
        <ele>824.735440</ele>
        <time>2019-05-01T11:41:42.000Z</time>
      </trkpt>
      <trkpt lat="48.057987" lon="8.431416">
        <ele>824.520339</ele>
        <time>2019-05-01T11:41:48.000Z</time>
      </trkpt>
      <trkpt lat="48.057890" lon="8.431388">
        <ele>824.291872</ele>
        <time>2019-05-01T11:41:53.000Z</time>
      </trkpt>
      <trkpt lat="48.057793" lon="8.431404">
        <ele>824.066184</ele>
        <time>2019-05-01T11:42:00.000Z</time>
      </trkpt>
      <trkpt lat="48.057697" lon="8.431379">
        <ele>823.841475</ele>
        <time>2019-05-01T11:42:05.000Z</time>
      </trkpt>
      <trkpt lat="48.057602" lon="8.431383">
        <ele>823.622682</ele>
        <time>2019-05-01T11:42:14.000Z</time>
      </trkpt>
      <trkpt lat="48.057503" lon="8.431430">
        <ele>823.383568</ele>
        <time>2019-05-01T11:42:22.000Z</time>
      </trkpt>
      <trkpt lat="48.057400" lon="8.431467">
        <ele>823.139705</ele>
        <time>2019-05-01T11:42:29.000Z</time>
      </trkpt>
      <trkpt lat="48.057346" lon="8.431592">
        <ele>822.910685</ele>
        <time>2019-05-01T11:43:40.000Z</time>
      </trkpt>
      <trkpt lat="48.057346" lon="8.431740">
        <ele>822.682951</ele>
        <time>2019-05-01T11:43:47.000Z</time>
      </trkpt>
      <trkpt lat="48.057358" lon="8.431887">
        <ele>822.455076</ele>
        <time>2019-05-01T11:43:56.000Z</time>
      </trkpt>
      <trkpt lat="48.057343" lon="8.432033">
        <ele>822.227781</ele>
        <time>2019-05-01T11:44:04.000Z</time>
      </trkpt>
      <trkpt lat="48.057380" lon="8.432172">
        <ele>821.997559</ele>
        <time>2019-05-01T11:44:10.000Z</time>
      </trkpt>
      <trkpt lat="48.057400" lon="8.432314">
        <ele>821.774259</ele>
        <time>2019-05-01T11:44:18.000Z</time>
      </trkpt>
      <trkpt lat="48.057354" lon="8.432522">
        <ele>821.437136</ele>
        <time>2019-05-01T11:45:06.000Z</time>
      </trkpt>
      <trkpt lat="48.057293" lon="8.432628">
        <ele>821.221904</ele>
        <time>2019-05-01T11:45:15.000Z</time>
      </trkpt>
      <trkpt lat="48.057323" lon="8.432832">
        <ele>820.900493</ele>
        <time>2019-05-01T11:46:10.000Z</time>
      </trkpt>
      <trkpt lat="48.057343" lon="8.432973">
        <ele>820.678698</ele>
        <time>2019-05-01T11:46:17.000Z</time>
      </trkpt>
      <trkpt lat="48.057360" lon="8.433105">
        <ele>820.471849</ele>
        <time>2019-05-01T11:46:25.000Z</time>
      </trkpt>
      <trkpt lat="48.057377" lon="8.433249">
        <ele>820.246840</ele>
        <time>2019-05-01T11:46:35.000Z</time>
      </trkpt>
      <trkpt lat="48.057392" lon="8.433384">
        <ele>820.036260</ele>
        <time>2019-05-01T11:46:47.000Z</time>
      </trkpt>
      <trkpt lat="48.057380" lon="8.433537">
        <ele>819.798762</ele>
        <time>2019-05-01T11:46:58.000Z</time>
      </trkpt>
      <trkpt lat="48.057343" lon="8.433659">
        <ele>819.590431</ele>
        <time>2019-05-01T11:47:06.000Z</time>
      </trkpt>
      <trkpt lat="48.057278" lon="8.433763">
        <ele>819.369017</ele>
        <time>2019-05-01T11:47:13.000Z</time>
      </trkpt>
      <trkpt lat="48.057335" lon="8.433868">
        <ele>819.158668</ele>
        <time>2019-05-01T11:47:20.000Z</time>
      </trkpt>
      <trkpt lat="48.057415" lon="8.433983">
        <ele>818.900555</ele>
        <time>2019-05-01T11:47:29.000Z</time>
      </trkpt>
      <trkpt lat="48.057470" lon="8.434113">
        <ele>818.661305</ele>
        <time>2019-05-01T11:47:35.000Z</time>
      </trkpt>
      <trkpt lat="48.057526" lon="8.434219">
        <ele>818.451198</ele>
        <time>2019-05-01T11:47:39.000Z</time>
      </trkpt>
      <trkpt lat="48.057568" lon="8.434356">
        <ele>818.216818</ele>
        <time>2019-05-01T11:47:46.000Z</time>
      </trkpt>
      <trkpt lat="48.057613" lon="8.434484">
        <ele>817.991919</ele>
        <time>2019-05-01T11:47:55.000Z</time>
      </trkpt>
      <trkpt lat="48.057660" lon="8.434608">
        <ele>817.770248</ele>
        <time>2019-05-01T11:48:04.000Z</time>
      </trkpt>
      <trkpt lat="48.057667" lon="8.434758">
        <ele>817.536425</ele>
        <time>2019-05-01T11:48:09.000Z</time>
      </trkpt>
      <trkpt lat="48.057674" lon="8.434894">
        <ele>817.324315</ele>
        <time>2019-05-01T11:48:15.000Z</time>
      </trkpt>
      <trkpt lat="48.057667" lon="8.435037">
        <ele>817.101350</ele>
        <time>2019-05-01T11:48:24.000Z</time>
      </trkpt>
      <trkpt lat="48.057724" lon="8.435159">
        <ele>816.869882</ele>
        <time>2019-05-01T11:48:35.000Z</time>
      </trkpt>
      <trkpt lat="48.057790" lon="8.435282">
        <ele>816.624602</ele>
        <time>2019-05-01T11:48:43.000Z</time>
      </trkpt>
      <trkpt lat="48.057823" lon="8.435414">
        <ele>816.405450</ele>
        <time>2019-05-01T11:48:50.000Z</time>
      </trkpt>
      <trkpt lat="48.057920" lon="8.435432">
        <ele>816.178045</ele>
        <time>2019-05-01T11:49:01.000Z</time>
      </trkpt>
      <trkpt lat="48.058014" lon="8.435466">
        <ele>815.953048</ele>
        <time>2019-05-01T11:49:07.000Z</time>
      </trkpt>
      <trkpt lat="48.058086" lon="8.435552">
        <ele>815.738702</ele>
        <time>2019-05-01T11:49:14.000Z</time>
      </trkpt>
      <trkpt lat="48.058132" lon="8.435675">
        <ele>815.456851</ele>
        <time>2019-05-01T11:49:21.000Z</time>
      </trkpt>
      <trkpt lat="48.058132" lon="8.435936">
        <ele>814.866727</ele>
        <time>2019-05-01T11:50:08.000Z</time>
      </trkpt>
      <trkpt lat="48.058155" lon="8.436070">
        <ele>814.553921</ele>
        <time>2019-05-01T11:50:15.000Z</time>
      </trkpt>
      <trkpt lat="48.058163" lon="8.436211">
        <ele>814.233972</ele>
        <time>2019-05-01T11:50:23.000Z</time>
      </trkpt>
      <trkpt lat="48.058186" lon="8.436352">
        <ele>813.905812</ele>
        <time>2019-05-01T11:50:30.000Z</time>
      </trkpt>
      <trkpt lat="48.058205" lon="8.436495">
        <ele>813.576161</ele>
        <time>2019-05-01T11:50:38.000Z</time>
      </trkpt>
      <trkpt lat="48.058235" lon="8.436627">
        <ele>813.260926</ele>
        <time>2019-05-01T11:50:45.000Z</time>
      </trkpt>
      <trkpt lat="48.058273" lon="8.436768">
        <ele>812.917183</ele>
        <time>2019-05-01T11:50:52.000Z</time>
      </trkpt>
      <trkpt lat="48.058300" lon="8.436899">
        <ele>812.607228</ele>
        <time>2019-05-01T11:51:01.000Z</time>
      </trkpt>
      <trkpt lat="48.058323" lon="8.437046">
        <ele>812.265875</ele>
        <time>2019-05-01T11:51:09.000Z</time>
      </trkpt>
      <trkpt lat="48.058346" lon="8.437176">
        <ele>811.961821</ele>
        <time>2019-05-01T11:51:15.000Z</time>
      </trkpt>
      <trkpt lat="48.058483" lon="8.437286">
        <ele>811.435853</ele>
        <time>2019-05-01T11:53:00.000Z</time>
      </trkpt>
      <trkpt lat="48.058567" lon="8.437335">
        <ele>811.130861</ele>
        <time>2019-05-01T11:53:07.000Z</time>
      </trkpt>
      <trkpt lat="48.058628" lon="8.437439">
        <ele>810.818013</ele>
        <time>2019-05-01T11:53:14.000Z</time>
      </trkpt>
      <trkpt lat="48.058650" lon="8.437569">
        <ele>810.514809</ele>
        <time>2019-05-01T11:53:20.000Z</time>
      </trkpt>
      <trkpt lat="48.058640" lon="8.437702">
        <ele>810.212200</ele>
        <time>2019-05-01T11:53:26.000Z</time>
      </trkpt>
      <trkpt lat="48.058628" lon="8.437840">
        <ele>809.897554</ele>
        <time>2019-05-01T11:53:31.000Z</time>
      </trkpt>
      <trkpt lat="48.058624" lon="8.437993">
        <ele>809.566316</ele>
        <time>2019-05-01T11:53:40.000Z</time>
      </trkpt>
      <trkpt lat="48.058678" lon="8.438102">
        <ele>809.471042</ele>
        <time>2019-05-01T11:53:50.000Z</time>
      </trkpt>
      <trkpt lat="48.058727" lon="8.438227">
        <ele>809.369283</ele>
        <time>2019-05-01T11:53:59.000Z</time>
      </trkpt>
      <trkpt lat="48.058760" lon="8.438372">
        <ele>809.261723</ele>
        <time>2019-05-01T11:54:06.000Z</time>
      </trkpt>
      <trkpt lat="48.058758" lon="8.438518">
        <ele>809.159179</ele>
        <time>2019-05-01T11:54:15.000Z</time>
      </trkpt>
      <trkpt lat="48.058685" lon="8.438672">
        <ele>809.026603</ele>
        <time>2019-05-01T11:54:21.000Z</time>
      </trkpt>
      <trkpt lat="48.058647" lon="8.438816">
        <ele>808.917889</ele>
        <time>2019-05-01T11:54:26.000Z</time>
      </trkpt>
      <trkpt lat="48.058640" lon="8.438962">
        <ele>808.815104</ele>
        <time>2019-05-01T11:54:34.000Z</time>
      </trkpt>
      <trkpt lat="48.058605" lon="8.439094">
        <ele>808.715385</ele>
        <time>2019-05-01T11:54:40.000Z</time>
      </trkpt>
      <trkpt lat="48.058582" lon="8.439231">
        <ele>808.616194</ele>
        <time>2019-05-01T11:54:47.000Z</time>
      </trkpt>
      <trkpt lat="48.058544" lon="8.439366">
        <ele>808.513332</ele>
        <time>2019-05-01T11:54:57.000Z</time>
      </trkpt>
      <trkpt lat="48.058510" lon="8.439508">
        <ele>808.407413</ele>
        <time>2019-05-01T11:55:04.000Z</time>
      </trkpt>
      <trkpt lat="48.058468" lon="8.439660">
        <ele>808.291916</ele>
        <time>2019-05-01T11:55:10.000Z</time>
      </trkpt>
      <trkpt lat="48.058434" lon="8.439795">
        <ele>808.190611</ele>
        <time>2019-05-01T11:55:16.000Z</time>
      </trkpt>
      <trkpt lat="48.058395" lon="8.439928">
        <ele>808.088624</ele>
        <time>2019-05-01T11:55:24.000Z</time>
      </trkpt>
      <trkpt lat="48.058350" lon="8.440060">
        <ele>807.984571</ele>
        <time>2019-05-01T11:55:34.000Z</time>
      </trkpt>
      <trkpt lat="48.058296" lon="8.440187">
        <ele>807.878874</ele>
        <time>2019-05-01T11:55:43.000Z</time>
      </trkpt>
      <trkpt lat="48.058220" lon="8.440265">
        <ele>807.782046</ele>
        <time>2019-05-01T11:55:51.000Z</time>
      </trkpt>
      <trkpt lat="48.058160" lon="8.440376">
        <ele>807.682723</ele>
        <time>2019-05-01T11:55:57.000Z</time>
      </trkpt>
      <trkpt lat="48.058144" lon="8.440509">
        <ele>807.644199</ele>
        <time>2019-05-01T11:56:01.000Z</time>
      </trkpt>
      <trkpt lat="48.058140" lon="8.440651">
        <ele>807.603683</ele>
        <time>2019-05-01T11:56:07.000Z</time>
      </trkpt>
      <trkpt lat="48.058100" lon="8.440785">
        <ele>807.561847</ele>
        <time>2019-05-01T11:56:14.000Z</time>
      </trkpt>
      <trkpt lat="48.058060" lon="8.440927">
        <ele>807.517919</ele>
        <time>2019-05-01T11:56:19.000Z</time>
      </trkpt>
      <trkpt lat="48.058040" lon="8.441068">
        <ele>807.476829</ele>
        <time>2019-05-01T11:56:28.000Z</time>
      </trkpt>
      <trkpt lat="48.058020" lon="8.441199">
        <ele>807.438523</ele>
        <time>2019-05-01T11:56:35.000Z</time>
      </trkpt>
      <trkpt lat="48.058010" lon="8.441340">
        <ele>807.398102</ele>
        <time>2019-05-01T11:56:41.000Z</time>
      </trkpt>
      <trkpt lat="48.058000" lon="8.441474">
        <ele>807.359665</ele>
        <time>2019-05-01T11:56:49.000Z</time>
      </trkpt>
      <trkpt lat="48.058006" lon="8.441608">
        <ele>807.321380</ele>
        <time>2019-05-01T11:56:57.000Z</time>
      </trkpt>
      <trkpt lat="48.058030" lon="8.441754">
        <ele>807.278520</ele>
        <time>2019-05-01T11:57:04.000Z</time>
      </trkpt>
      <trkpt lat="48.058050" lon="8.441898">
        <ele>807.236593</ele>
        <time>2019-05-01T11:57:11.000Z</time>
      </trkpt>
      <trkpt lat="48.058052" lon="8.442039">
        <ele>807.196389</ele>
        <time>2019-05-01T11:57:18.000Z</time>
      </trkpt>
      <trkpt lat="48.058060" lon="8.442179">
        <ele>807.156333</ele>
        <time>2019-05-01T11:57:25.000Z</time>
      </trkpt>
      <trkpt lat="48.058080" lon="8.442316">
        <ele>807.116358</ele>
        <time>2019-05-01T11:57:32.000Z</time>
      </trkpt>
      <trkpt lat="48.058100" lon="8.442473">
        <ele>807.070796</ele>
        <time>2019-05-01T11:57:39.000Z</time>
      </trkpt>
      <trkpt lat="48.058125" lon="8.442615">
        <ele>807.028935</ele>
        <time>2019-05-01T11:57:45.000Z</time>
      </trkpt>
      <trkpt lat="48.058140" lon="8.442754">
        <ele>806.988798</ele>
        <time>2019-05-01T11:57:54.000Z</time>
      </trkpt>
      <trkpt lat="48.058098" lon="8.442897">
        <ele>806.944270</ele>
        <time>2019-05-01T11:58:01.000Z</time>
      </trkpt>
      <trkpt lat="48.058075" lon="8.443031">
        <ele>806.897473</ele>
        <time>2019-05-01T11:58:07.000Z</time>
      </trkpt>
      <trkpt lat="48.058044" lon="8.443163">
        <ele>806.831798</ele>
        <time>2019-05-01T11:58:15.000Z</time>
      </trkpt>
      <trkpt lat="48.058037" lon="8.443300">
        <ele>806.767303</ele>
        <time>2019-05-01T11:58:22.000Z</time>
      </trkpt>
      <trkpt lat="48.058050" lon="8.443452">
        <ele>806.695373</ele>
        <time>2019-05-01T11:58:30.000Z</time>
      </trkpt>
      <trkpt lat="48.058098" lon="8.443595">
        <ele>806.620260</ele>
        <time>2019-05-01T11:58:38.000Z</time>
      </trkpt>
      <trkpt lat="48.058113" lon="8.443729">
        <ele>806.556484</ele>
        <time>2019-05-01T11:58:48.000Z</time>
      </trkpt>
      <trkpt lat="48.058140" lon="8.443875">
        <ele>806.485377</ele>
        <time>2019-05-01T11:59:07.000Z</time>
      </trkpt>
      <trkpt lat="48.058160" lon="8.444020">
        <ele>806.415880</ele>
        <time>2019-05-01T11:59:15.000Z</time>
      </trkpt>
      <trkpt lat="48.058180" lon="8.444161">
        <ele>806.348221</ele>
        <time>2019-05-01T11:59:23.000Z</time>
      </trkpt>
      <trkpt lat="48.058220" lon="8.444298">
        <ele>806.278046</ele>
        <time>2019-05-01T11:59:31.000Z</time>
      </trkpt>
      <trkpt lat="48.058273" lon="8.444422">
        <ele>806.208957</ele>
        <time>2019-05-01T11:59:39.000Z</time>
      </trkpt>
      <trkpt lat="48.058308" lon="8.444547">
        <ele>806.145341</ele>
        <time>2019-05-01T11:59:45.000Z</time>
      </trkpt>
      <trkpt lat="48.058380" lon="8.444655">
        <ele>806.073740</ele>
        <time>2019-05-01T11:59:52.000Z</time>
      </trkpt>
      <trkpt lat="48.058464" lon="8.444716">
        <ele>806.008165</ele>
        <time>2019-05-01T12:00:01.000Z</time>
      </trkpt>
      <trkpt lat="48.058372" lon="8.444678">
        <ele>805.941137</ele>
        <time>2019-05-01T12:00:39.000Z</time>
      </trkpt>
      <trkpt lat="48.058240" lon="8.444713">
        <ele>805.846989</ele>
        <time>2019-05-01T12:02:45.000Z</time>
      </trkpt>
      <trkpt lat="48.058150" lon="8.444763">
        <ele>805.779566</ele>
        <time>2019-05-01T12:02:52.000Z</time>
      </trkpt>
      <trkpt lat="48.058147" lon="8.444957">
        <ele>805.688478</ele>
        <time>2019-05-01T12:03:31.000Z</time>
      </trkpt>
      <trkpt lat="48.058174" lon="8.445087">
        <ele>805.570262</ele>
        <time>2019-05-01T12:03:39.000Z</time>
      </trkpt>
      <trkpt lat="48.058266" lon="8.445190">
        <ele>805.335516</ele>
        <time>2019-05-01T12:04:19.000Z</time>
      </trkpt>
      <trkpt lat="48.058384" lon="8.445117">
        <ele>805.074653</ele>
        <time>2019-05-01T12:04:58.000Z</time>
      </trkpt>
      <trkpt lat="48.058456" lon="8.445021">
        <ele>804.877627</ele>
        <time>2019-05-01T12:05:04.000Z</time>
      </trkpt>
      <trkpt lat="48.058420" lon="8.444893">
        <ele>804.688006</ele>
        <time>2019-05-01T12:05:23.000Z</time>
      </trkpt>
      <trkpt lat="48.058357" lon="8.444766">
        <ele>804.472050</ele>
        <time>2019-05-01T12:05:29.000Z</time>
      </trkpt>
      <trkpt lat="48.058323" lon="8.444625">
        <ele>804.267375</ele>
        <time>2019-05-01T12:05:36.000Z</time>
      </trkpt>
      <trkpt lat="48.058353" lon="8.444810">
        <ele>804.007437</ele>
        <time>2019-05-01T12:06:43.000Z</time>
      </trkpt>
      <trkpt lat="48.058380" lon="8.444967">
        <ele>803.786078</ele>
        <time>2019-05-01T12:06:50.000Z</time>
      </trkpt>
      <trkpt lat="48.058410" lon="8.445105">
        <ele>803.587930</ele>
        <time>2019-05-01T12:06:57.000Z</time>
      </trkpt>
      <trkpt lat="48.058342" lon="8.445218">
        <ele>803.380309</ele>
        <time>2019-05-01T12:07:39.000Z</time>
      </trkpt>
      <trkpt lat="48.058315" lon="8.445420">
        <ele>803.099026</ele>
        <time>2019-05-01T12:08:36.000Z</time>
      </trkpt>
      <trkpt lat="48.058360" lon="8.445554">
        <ele>802.894258</ele>
        <time>2019-05-01T12:08:44.000Z</time>
      </trkpt>
      <trkpt lat="48.058414" lon="8.445670">
        <ele>802.701234</ele>
        <time>2019-05-01T12:08:53.000Z</time>
      </trkpt>
      <trkpt lat="48.058445" lon="8.445820">
        <ele>802.486848</ele>
        <time>2019-05-01T12:09:01.000Z</time>
      </trkpt>
      <trkpt lat="48.058468" lon="8.445953">
        <ele>802.299263</ele>
        <time>2019-05-01T12:09:08.000Z</time>
      </trkpt>
      <trkpt lat="48.058470" lon="8.446093">
        <ele>802.108057</ele>
        <time>2019-05-01T12:09:14.000Z</time>
      </trkpt>
      <trkpt lat="48.058490" lon="8.446230">
        <ele>801.962791</ele>
        <time>2019-05-01T12:09:22.000Z</time>
      </trkpt>
      <trkpt lat="48.058525" lon="8.446376">
        <ele>801.909069</ele>
        <time>2019-05-01T12:09:30.000Z</time>
      </trkpt>
      <trkpt lat="48.058570" lon="8.446494">
        <ele>801.862015</ele>
        <time>2019-05-01T12:09:36.000Z</time>
      </trkpt>
      <trkpt lat="48.058630" lon="8.446621">
        <ele>801.808148</ele>
        <time>2019-05-01T12:09:42.000Z</time>
      </trkpt>
      <trkpt lat="48.058662" lon="8.446754">
        <ele>801.759190</ele>
        <time>2019-05-01T12:09:49.000Z</time>
      </trkpt>
      <trkpt lat="48.058693" lon="8.446889">
        <ele>801.709749</ele>
        <time>2019-05-01T12:09:56.000Z</time>
      </trkpt>
      <trkpt lat="48.058710" lon="8.447032">
        <ele>801.659443</ele>
        <time>2019-05-01T12:10:04.000Z</time>
      </trkpt>
      <trkpt lat="48.058720" lon="8.447166">
        <ele>801.612744</ele>
        <time>2019-05-01T12:10:12.000Z</time>
      </trkpt>
      <trkpt lat="48.058730" lon="8.447307">
        <ele>801.563634</ele>
        <time>2019-05-01T12:10:19.000Z</time>
      </trkpt>
      <trkpt lat="48.058720" lon="8.447454">
        <ele>801.512457</ele>
        <time>2019-05-01T12:10:25.000Z</time>
      </trkpt>
      <trkpt lat="48.058700" lon="8.447591">
        <ele>801.463888</ele>
        <time>2019-05-01T12:10:32.000Z</time>
      </trkpt>
      <trkpt lat="48.058678" lon="8.447733">
        <ele>801.413402</ele>
        <time>2019-05-01T12:10:38.000Z</time>
      </trkpt>
      <trkpt lat="48.058666" lon="8.447887">
        <ele>801.359702</ele>
        <time>2019-05-01T12:10:45.000Z</time>
      </trkpt>
      <trkpt lat="48.058655" lon="8.448023">
        <ele>801.312255</ele>
        <time>2019-05-01T12:10:51.000Z</time>
      </trkpt>
      <trkpt lat="48.058628" lon="8.448169">
        <ele>801.259787</ele>
        <time>2019-05-01T12:10:57.000Z</time>
      </trkpt>
      <trkpt lat="48.058610" lon="8.448309">
        <ele>801.210409</ele>
        <time>2019-05-01T12:11:04.000Z</time>
      </trkpt>
      <trkpt lat="48.058605" lon="8.448463">
        <ele>801.157007</ele>
        <time>2019-05-01T12:11:12.000Z</time>
      </trkpt>
      <trkpt lat="48.058575" lon="8.448605">
        <ele>801.105427</ele>
        <time>2019-05-01T12:11:18.000Z</time>
      </trkpt>
      <trkpt lat="48.058540" lon="8.448738">
        <ele>801.055920</ele>
        <time>2019-05-01T12:11:25.000Z</time>
      </trkpt>
      <trkpt lat="48.058506" lon="8.448867">
        <ele>801.066048</ele>
        <time>2019-05-01T12:11:32.000Z</time>
      </trkpt>
      <trkpt lat="48.058487" lon="8.448998">
        <ele>801.089684</ele>
        <time>2019-05-01T12:11:38.000Z</time>
      </trkpt>
      <trkpt lat="48.058470" lon="8.449137">
        <ele>801.114600</ele>
        <time>2019-05-01T12:11:46.000Z</time>
      </trkpt>
      <trkpt lat="48.058475" lon="8.449290">
        <ele>801.141610</ele>
        <time>2019-05-01T12:11:53.000Z</time>
      </trkpt>
      <trkpt lat="48.058490" lon="8.449429">
        <ele>801.166437</ele>
        <time>2019-05-01T12:11:58.000Z</time>
      </trkpt>
      <trkpt lat="48.058520" lon="8.449560">
        <ele>801.190853</ele>
        <time>2019-05-01T12:12:05.000Z</time>
      </trkpt>
      <trkpt lat="48.058540" lon="8.449699">
        <ele>801.215924</ele>
        <time>2019-05-01T12:12:12.000Z</time>
      </trkpt>
      <trkpt lat="48.058570" lon="8.449829">
        <ele>801.240174</ele>
        <time>2019-05-01T12:12:18.000Z</time>
      </trkpt>
      <trkpt lat="48.058560" lon="8.449964">
        <ele>801.264123</ele>
        <time>2019-05-01T12:12:25.000Z</time>
      </trkpt>
      <trkpt lat="48.058600" lon="8.450103">
        <ele>801.290808</ele>
        <time>2019-05-01T12:12:31.000Z</time>
      </trkpt>
      <trkpt lat="48.058600" lon="8.450256">
        <ele>801.317785</ele>
        <time>2019-05-01T12:12:40.000Z</time>
      </trkpt>
      <trkpt lat="48.058598" lon="8.450412">
        <ele>801.345297</ele>
        <time>2019-05-01T12:12:48.000Z</time>
      </trkpt>
      <trkpt lat="48.058605" lon="8.450554">
        <ele>801.370403</ele>
        <time>2019-05-01T12:13:00.000Z</time>
      </trkpt>
      <trkpt lat="48.058600" lon="8.450696">
        <ele>801.395476</ele>
        <time>2019-05-01T12:13:07.000Z</time>
      </trkpt>
      <trkpt lat="48.058600" lon="8.450846">
        <ele>801.421924</ele>
        <time>2019-05-01T12:13:15.000Z</time>
      </trkpt>
      <trkpt lat="48.058613" lon="8.450983">
        <ele>801.446323</ele>
        <time>2019-05-01T12:13:22.000Z</time>
      </trkpt>
      <trkpt lat="48.058594" lon="8.451118">
        <ele>801.470649</ele>
        <time>2019-05-01T12:13:30.000Z</time>
      </trkpt>
      <trkpt lat="48.058575" lon="8.451251">
        <ele>801.494630</ele>
        <time>2019-05-01T12:13:37.000Z</time>
      </trkpt>
      <trkpt lat="48.058570" lon="8.451396">
        <ele>801.520231</ele>
        <time>2019-05-01T12:13:44.000Z</time>
      </trkpt>
      <trkpt lat="48.058570" lon="8.451537">
        <ele>801.493406</ele>
        <time>2019-05-01T12:13:52.000Z</time>
      </trkpt>
      <trkpt lat="48.058580" lon="8.451677">
        <ele>801.465120</ele>
        <time>2019-05-01T12:14:00.000Z</time>
      </trkpt>
      <trkpt lat="48.058605" lon="8.451841">
        <ele>801.431326</ele>
        <time>2019-05-01T12:14:05.000Z</time>
      </trkpt>
      <trkpt lat="48.058630" lon="8.451989">
        <ele>801.400657</ele>
        <time>2019-05-01T12:14:11.000Z</time>
      </trkpt>
      <trkpt lat="48.058680" lon="8.452109">
        <ele>801.372248</ele>
        <time>2019-05-01T12:14:18.000Z</time>
      </trkpt>
      <trkpt lat="48.058720" lon="8.452240">
        <ele>801.343313</ele>
        <time>2019-05-01T12:14:29.000Z</time>
      </trkpt>
      <trkpt lat="48.058730" lon="8.452402">
        <ele>801.310629</ele>
        <time>2019-05-01T12:14:37.000Z</time>
      </trkpt>
      <trkpt lat="48.058750" lon="8.452542">
        <ele>801.281867</ele>
        <time>2019-05-01T12:14:43.000Z</time>
      </trkpt>
      <trkpt lat="48.058754" lon="8.452688">
        <ele>801.252511</ele>
        <time>2019-05-01T12:14:49.000Z</time>
      </trkpt>
      <trkpt lat="48.058712" lon="8.452810">
        <ele>801.224941</ele>
        <time>2019-05-01T12:15:01.000Z</time>
      </trkpt>
      <trkpt lat="48.058630" lon="8.452746">
        <ele>801.197141</ele>
        <time>2019-05-01T12:15:10.000Z</time>
      </trkpt>
      <trkpt lat="48.058617" lon="8.452882">
        <ele>801.169540</ele>
        <time>2019-05-01T12:15:14.000Z</time>
      </trkpt>
      <trkpt lat="48.058575" lon="8.453003">
        <ele>801.142148</ele>
        <time>2019-05-01T12:15:20.000Z</time>
      </trkpt>
      <trkpt lat="48.058530" lon="8.453132">
        <ele>801.112914</ele>
        <time>2019-05-01T12:15:27.000Z</time>
      </trkpt>
      <trkpt lat="48.058434" lon="8.453218">
        <ele>801.079281</ele>
        <time>2019-05-01T12:15:35.000Z</time>
      </trkpt>
      <trkpt lat="48.058434" lon="8.453360">
        <ele>801.050753</ele>
        <time>2019-05-01T12:17:05.000Z</time>
      </trkpt>
      <trkpt lat="48.058407" lon="8.453499">
        <ele>801.021672</ele>
        <time>2019-05-01T12:17:18.000Z</time>
      </trkpt>
      <trkpt lat="48.058380" lon="8.453643">
        <ele>800.991625</ele>
        <time>2019-05-01T12:17:28.000Z</time>
      </trkpt>
      <trkpt lat="48.058357" lon="8.453811">
        <ele>800.911506</ele>
        <time>2019-05-01T12:17:35.000Z</time>
      </trkpt>
      <trkpt lat="48.058340" lon="8.453942">
        <ele>800.831731</ele>
        <time>2019-05-01T12:17:42.000Z</time>
      </trkpt>
      <trkpt lat="48.058296" lon="8.454065">
        <ele>800.748331</ele>
        <time>2019-05-01T12:17:48.000Z</time>
      </trkpt>
      <trkpt lat="48.058240" lon="8.454182">
        <ele>800.662302</ele>
        <time>2019-05-01T12:17:55.000Z</time>
      </trkpt>
      <trkpt lat="48.058174" lon="8.454475">
        <ele>800.477464</ele>
        <time>2019-05-01T12:18:44.000Z</time>
      </trkpt>
      <trkpt lat="48.058136" lon="8.454598">
        <ele>800.396458</ele>
        <time>2019-05-01T12:18:55.000Z</time>
      </trkpt>
      <trkpt lat="48.058080" lon="8.454721">
        <ele>800.307488</ele>
        <time>2019-05-01T12:19:06.000Z</time>
      </trkpt>
      <trkpt lat="48.058025" lon="8.454832">
        <ele>800.224885</ele>
        <time>2019-05-01T12:19:12.000Z</time>
      </trkpt>
      <trkpt lat="48.057938" lon="8.454927">
        <ele>800.128550</ele>
        <time>2019-05-01T12:19:17.000Z</time>
      </trkpt>
      <trkpt lat="48.057877" lon="8.455030">
        <ele>800.046281</ele>
        <time>2019-05-01T12:19:25.000Z</time>
      </trkpt>
      <trkpt lat="48.057804" lon="8.455121">
        <ele>799.961294</ele>
        <time>2019-05-01T12:19:34.000Z</time>
      </trkpt>
      <trkpt lat="48.057710" lon="8.455132">
        <ele>799.876962</ele>
        <time>2019-05-01T12:19:44.000Z</time>
      </trkpt>
      <trkpt lat="48.057632" lon="8.455223">
        <ele>799.788493</ele>
        <time>2019-05-01T12:19:53.000Z</time>
      </trkpt>
      <trkpt lat="48.057533" lon="8.455356">
        <ele>799.669487</ele>
        <time>2019-05-01T12:20:00.000Z</time>
      </trkpt>
      <trkpt lat="48.057470" lon="8.455447">
        <ele>799.591162</ele>
        <time>2019-05-01T12:20:07.000Z</time>
      </trkpt>
      <trkpt lat="48.057392" lon="8.455535">
        <ele>799.503785</ele>
        <time>2019-05-01T12:20:14.000Z</time>
      </trkpt>
      <trkpt lat="48.057396" lon="8.455687">
        <ele>799.412846</ele>
        <time>2019-05-01T12:20:21.000Z</time>
      </trkpt>
      <trkpt lat="48.057377" lon="8.455833">
        <ele>799.233395</ele>
        <time>2019-05-01T12:20:30.000Z</time>
      </trkpt>
      <trkpt lat="48.057310" lon="8.455936">
        <ele>798.984101</ele>
        <time>2019-05-01T12:20:44.000Z</time>
      </trkpt>
      <trkpt lat="48.057228" lon="8.456018">
        <ele>798.728150</ele>
        <time>2019-05-01T12:20:52.000Z</time>
      </trkpt>
      <trkpt lat="48.057144" lon="8.456096">
        <ele>798.471594</ele>
        <time>2019-05-01T12:20:59.000Z</time>
      </trkpt>
      <trkpt lat="48.057056" lon="8.456143">
        <ele>798.229114</ele>
        <time>2019-05-01T12:21:05.000Z</time>
      </trkpt>
      <trkpt lat="48.056980" lon="8.456243">
        <ele>797.966468</ele>
        <time>2019-05-01T12:21:11.000Z</time>
      </trkpt>
      <trkpt lat="48.056910" lon="8.456332">
        <ele>797.728080</ele>
        <time>2019-05-01T12:21:19.000Z</time>
      </trkpt>
      <trkpt lat="48.056816" lon="8.456340">
        <ele>797.483750</ele>
        <time>2019-05-01T12:21:26.000Z</time>
      </trkpt>
      <trkpt lat="48.056730" lon="8.456387">
        <ele>797.246152</ele>
        <time>2019-05-01T12:21:36.000Z</time>
      </trkpt>
      <trkpt lat="48.056730" lon="8.456526">
        <ele>797.005054</ele>
        <time>2019-05-01T12:21:52.000Z</time>
      </trkpt>
      <trkpt lat="48.056713" lon="8.456661">
        <ele>796.766774</ele>
        <time>2019-05-01T12:22:05.000Z</time>
      </trkpt>
      <trkpt lat="48.056610" lon="8.456697">
        <ele>796.492286</ele>
        <time>2019-05-01T12:22:14.000Z</time>
      </trkpt>
      <trkpt lat="48.056515" lon="8.456675">
        <ele>796.242820</ele>
        <time>2019-05-01T12:22:20.000Z</time>
      </trkpt>
      <trkpt lat="48.056435" lon="8.456761">
        <ele>795.987181</ele>
        <time>2019-05-01T12:22:32.000Z</time>
      </trkpt>
      <trkpt lat="48.056400" lon="8.456884">
        <ele>795.755304</ele>
        <time>2019-05-01T12:22:37.000Z</time>
      </trkpt>
      <trkpt lat="48.056440" lon="8.457021">
        <ele>795.495991</ele>
        <time>2019-05-01T12:22:45.000Z</time>
      </trkpt>
      <trkpt lat="48.056496" lon="8.457121">
        <ele>795.269706</ele>
        <time>2019-05-01T12:22:56.000Z</time>
      </trkpt>
      <trkpt lat="48.056600" lon="8.457105">
        <ele>794.998397</ele>
        <time>2019-05-01T12:23:19.000Z</time>
      </trkpt>
      <trkpt lat="48.056686" lon="8.457136">
        <ele>794.768836</ele>
        <time>2019-05-01T12:23:34.000Z</time>
      </trkpt>
      <trkpt lat="48.056877" lon="8.457590">
        <ele>791.149699</ele>
        <time>2019-05-01T12:27:59.000Z</time>
      </trkpt>
      <trkpt lat="48.056973" lon="8.457563">
        <ele>790.108839</ele>
        <time>2019-05-01T12:28:08.000Z</time>
      </trkpt>
      <trkpt lat="48.057056" lon="8.457497">
        <ele>789.107263</ele>
        <time>2019-05-01T12:28:13.000Z</time>
      </trkpt>
      <trkpt lat="48.057150" lon="8.457531">
        <ele>788.076777</ele>
        <time>2019-05-01T12:28:18.000Z</time>
      </trkpt>
      <trkpt lat="48.057186" lon="8.457664">
        <ele>787.054809</ele>
        <time>2019-05-01T12:28:47.000Z</time>
      </trkpt>
      <trkpt lat="48.057210" lon="8.457797">
        <ele>786.073654</ele>
        <time>2019-05-01T12:28:57.000Z</time>
      </trkpt>
      <trkpt lat="48.057213" lon="8.457659">
        <ele>785.090283</ele>
        <time>2019-05-01T12:29:24.000Z</time>
      </trkpt>
      <trkpt lat="48.057198" lon="8.457523">
        <ele>784.108577</ele>
        <time>2019-05-01T12:29:32.000Z</time>
      </trkpt>
      <trkpt lat="48.057217" lon="8.457676">
        <ele>783.000245</ele>
        <time>2019-05-01T12:30:56.000Z</time>
      </trkpt>
      <trkpt lat="48.057220" lon="8.457829">
        <ele>781.910094</ele>
        <time>2019-05-01T12:31:06.000Z</time>
      </trkpt>
      <trkpt lat="48.057247" lon="8.457962">
        <ele>780.920126</ele>
        <time>2019-05-01T12:31:21.000Z</time>
      </trkpt>
      <trkpt lat="48.057224" lon="8.458093">
        <ele>779.955478</ele>
        <time>2019-05-01T12:31:29.000Z</time>
      </trkpt>
      <trkpt lat="48.057228" lon="8.458228">
        <ele>778.993049</ele>
        <time>2019-05-01T12:31:39.000Z</time>
      </trkpt>
      <trkpt lat="48.057200" lon="8.458377">
        <ele>777.890710</ele>
        <time>2019-05-01T12:31:51.000Z</time>
      </trkpt>
      <trkpt lat="48.057213" lon="8.458513">
        <ele>776.912248</ele>
        <time>2019-05-01T12:31:59.000Z</time>
      </trkpt>
      <trkpt lat="48.057140" lon="8.458622">
        <ele>775.813281</ele>
        <time>2019-05-01T12:32:06.000Z</time>
      </trkpt>
      <trkpt lat="48.057120" lon="8.458764">
        <ele>775.268500</ele>
        <time>2019-05-01T12:32:19.000Z</time>
      </trkpt>
      <trkpt lat="48.057117" lon="8.458900">
        <ele>774.923853</ele>
        <time>2019-05-01T12:32:25.000Z</time>
      </trkpt>
      <trkpt lat="48.057144" lon="8.459032">
        <ele>774.574220</ele>
        <time>2019-05-01T12:32:39.000Z</time>
      </trkpt>
      <trkpt lat="48.057217" lon="8.459119">
        <ele>774.220558</ele>
        <time>2019-05-01T12:33:03.000Z</time>
      </trkpt>
      <trkpt lat="48.057312" lon="8.459108">
        <ele>773.859490</ele>
        <time>2019-05-01T12:33:17.000Z</time>
      </trkpt>
      <trkpt lat="48.057330" lon="8.459366">
        <ele>773.202483</ele>
        <time>2019-05-01T12:33:54.000Z</time>
      </trkpt>
      <trkpt lat="48.057304" lon="8.459498">
        <ele>772.853941</ele>
        <time>2019-05-01T12:34:03.000Z</time>
      </trkpt>
      <trkpt lat="48.057358" lon="8.459730">
        <ele>772.231726</ele>
        <time>2019-05-01T12:35:53.000Z</time>
      </trkpt>
      <trkpt lat="48.057350" lon="8.459872">
        <ele>771.870797</ele>
        <time>2019-05-01T12:36:04.000Z</time>
      </trkpt>
      <trkpt lat="48.057360" lon="8.460016">
        <ele>771.504114</ele>
        <time>2019-05-01T12:36:11.000Z</time>
      </trkpt>
      <trkpt lat="48.057370" lon="8.460159">
        <ele>771.139950</ele>
        <time>2019-05-01T12:36:17.000Z</time>
      </trkpt>
      <trkpt lat="48.057404" lon="8.460285">
        <ele>770.795794</ele>
        <time>2019-05-01T12:36:26.000Z</time>
      </trkpt>
      <trkpt lat="48.057410" lon="8.460421">
        <ele>770.450587</ele>
        <time>2019-05-01T12:36:35.000Z</time>
      </trkpt>
      <trkpt lat="48.057377" lon="8.460639">
        <ele>769.884458</ele>
        <time>2019-05-01T12:36:45.000Z</time>
      </trkpt>
      <trkpt lat="48.057373" lon="8.460788">
        <ele>769.506771</ele>
        <time>2019-05-01T12:36:48.000Z</time>
      </trkpt>
      <trkpt lat="48.057434" lon="8.460906">
        <ele>769.128944</ele>
        <time>2019-05-01T12:36:52.000Z</time>
      </trkpt>
      <trkpt lat="48.057495" lon="8.461008">
        <ele>768.782284</ele>
        <time>2019-05-01T12:37:07.000Z</time>
      </trkpt>
      <trkpt lat="48.057530" lon="8.461145">
        <ele>768.722485</ele>
        <time>2019-05-01T12:37:14.000Z</time>
      </trkpt>
      <trkpt lat="48.057540" lon="8.461290">
        <ele>768.722485</ele>
        <time>2019-05-01T12:37:23.000Z</time>
      </trkpt>
      <trkpt lat="48.057594" lon="8.461413">
        <ele>768.722485</ele>
        <time>2019-05-01T12:37:26.000Z</time>
      </trkpt>
      <trkpt lat="48.057580" lon="8.461561">
        <ele>768.722485</ele>
        <time>2019-05-01T12:37:39.000Z</time>
      </trkpt>
      <trkpt lat="48.057530" lon="8.461678">
        <ele>768.722485</ele>
        <time>2019-05-01T12:37:44.000Z</time>
      </trkpt>
      <trkpt lat="48.057487" lon="8.461798">
        <ele>768.722485</ele>
        <time>2019-05-01T12:37:52.000Z</time>
      </trkpt>
      <trkpt lat="48.057556" lon="8.461914">
        <ele>768.722485</ele>
        <time>2019-05-01T12:37:56.000Z</time>
      </trkpt>
      <trkpt lat="48.057640" lon="8.462003">
        <ele>768.722485</ele>
        <time>2019-05-01T12:38:01.000Z</time>
      </trkpt>
      <trkpt lat="48.057587" lon="8.462174">
        <ele>768.722485</ele>
        <time>2019-05-01T12:38:58.000Z</time>
      </trkpt>
      <trkpt lat="48.057648" lon="8.462277">
        <ele>768.722485</ele>
        <time>2019-05-01T12:39:09.000Z</time>
      </trkpt>
      <trkpt lat="48.057636" lon="8.462419">
        <ele>768.722485</ele>
        <time>2019-05-01T12:39:16.000Z</time>
      </trkpt>
      <trkpt lat="48.057680" lon="8.462546">
        <ele>768.722485</ele>
        <time>2019-05-01T12:39:22.000Z</time>
      </trkpt>
      <trkpt lat="48.057710" lon="8.462687">
        <ele>768.722485</ele>
        <time>2019-05-01T12:39:29.000Z</time>
      </trkpt>
      <trkpt lat="48.057660" lon="8.462808">
        <ele>768.722485</ele>
        <time>2019-05-01T12:39:35.000Z</time>
      </trkpt>
      <trkpt lat="48.057670" lon="8.462941">
        <ele>768.722485</ele>
        <time>2019-05-01T12:39:45.000Z</time>
      </trkpt>
      <trkpt lat="48.057674" lon="8.463083">
        <ele>768.722485</ele>
        <time>2019-05-01T12:39:49.000Z</time>
      </trkpt>
      <trkpt lat="48.057713" lon="8.463210">
        <ele>768.722485</ele>
        <time>2019-05-01T12:40:00.000Z</time>
      </trkpt>
      <trkpt lat="48.057693" lon="8.463347">
        <ele>768.722485</ele>
        <time>2019-05-01T12:40:08.000Z</time>
      </trkpt>
      <trkpt lat="48.057686" lon="8.463486">
        <ele>768.722485</ele>
        <time>2019-05-01T12:40:16.000Z</time>
      </trkpt>
      <trkpt lat="48.057660" lon="8.463617">
        <ele>768.722485</ele>
        <time>2019-05-01T12:40:23.000Z</time>
      </trkpt>
      <trkpt lat="48.057632" lon="8.463756">
        <ele>768.722485</ele>
        <time>2019-05-01T12:40:30.000Z</time>
      </trkpt>
      <trkpt lat="48.057630" lon="8.463901">
        <ele>768.722485</ele>
        <time>2019-05-01T12:40:37.000Z</time>
      </trkpt>
      <trkpt lat="48.057644" lon="8.464050">
        <ele>768.722485</ele>
        <time>2019-05-01T12:40:42.000Z</time>
      </trkpt>
      <trkpt lat="48.057682" lon="8.464173">
        <ele>768.722485</ele>
        <time>2019-05-01T12:40:48.000Z</time>
      </trkpt>
      <trkpt lat="48.057716" lon="8.464314">
        <ele>768.722485</ele>
        <time>2019-05-01T12:40:56.000Z</time>
      </trkpt>
      <trkpt lat="48.057700" lon="8.464458">
        <ele>768.722485</ele>
        <time>2019-05-01T12:41:06.000Z</time>
      </trkpt>
      <trkpt lat="48.057716" lon="8.464592">
        <ele>768.722485</ele>
        <time>2019-05-01T12:41:17.000Z</time>
      </trkpt>
    </trkseg>
  </trk>
</gpx>